PWSweather.com
Personal Weather Stations
Station Observations
DL5ARK
SonnebergDE

SonnebergDE

Lat: 50.34904861, Lon: 11.18112087

Elevation: 1214

Station Type: Selfmade

http://www.sumbarg.de

High Low Average
Temperature 42.5°F5.8°C 34.9°F1.6°C 40.5°F4.7°C
Dew Point 46.1°F7.8°C 39.8°F4.3°C 44.0°F6.7°C
Winds 15.4 mph 24.8 kmh Calm Calm 3.0 mph W4.8 kmh W
Wind Gusts 15.5 mph24.9 kmh -- 3.0 mph4.8 kmh
Humidity 92% 83% 88%
Pressure 30.12 in1020.0 mb 29.80 in1009.1 mb -
Precipitation 0.26 in6.6 mm - -
Hour Temp Dew Point Humidity Winds Wind Gusts Pressure Precip Precip Rate Daily Precip Total
12:02 AM 42.2°F5.7°C 45.7°F7.6°C 88% 0.4 mph WNW0.6 kmh WNW 0.4 mph0.6 kmh 30.11 in1019.6 mb 0.00 in0.0 mm 0.00 in0.0 mm 0.00 in0.0 mm
12:05 AM 42.2°F5.7°C 45.8°F7.7°C 87% 1.2 mph NNW1.9 kmh NNW 1.2 mph1.9 kmh 30.11 in1019.6 mb 0.00 in0.0 mm 0.00 in0.0 mm 0.00 in0.0 mm
12:08 AM 42.2°F5.7°C 45.7°F7.6°C 88% 3.6 mph NNW5.8 kmh NNW 3.6 mph5.8 kmh 30.11 in1019.6 mb 0.00 in0.0 mm 0.00 in0.0 mm 0.00 in0.0 mm
12:11 AM 42.4°F5.8°C 45.7°F7.6°C 88% Calm Calm -- 30.11 in1019.6 mb 0.00 in0.0 mm 0.00 in0.0 mm 0.00 in0.0 mm
12:14 AM 42.4°F5.8°C 45.8°F7.7°C 88% 2.0 mph W3.2 kmh W 2.0 mph3.2 kmh 30.11 in1019.6 mb 0.00 in0.0 mm 0.00 in0.0 mm 0.00 in0.0 mm
12:17 AM 42.4°F5.8°C 45.6°F7.6°C 88% 1.6 mph WNW2.6 kmh WNW 1.6 mph2.6 kmh 30.11 in1019.6 mb 0.00 in0.0 mm 0.00 in0.0 mm 0.00 in0.0 mm
12:20 AM 42.4°F5.8°C 45.8°F7.7°C 88% 3.6 mph W5.8 kmh W 3.7 mph6.0 kmh 30.11 in1019.6 mb 0.00 in0.0 mm 0.00 in0.0 mm 0.00 in0.0 mm
12:23 AM 42.4°F5.8°C 46.0°F7.8°C 88% 4.1 mph WNW6.6 kmh WNW 4.1 mph6.6 kmh 30.11 in1019.6 mb 0.00 in0.0 mm 0.00 in0.0 mm 0.00 in0.0 mm
12:26 AM 42.2°F5.7°C 45.7°F7.6°C 88% 1.6 mph W2.6 kmh W 1.6 mph2.6 kmh 30.11 in1019.6 mb 0.00 in0.0 mm 0.00 in0.0 mm 0.00 in0.0 mm
12:29 AM 42.4°F5.8°C 45.7°F7.6°C 88% 3.2 mph W5.1 kmh W 3.2 mph5.1 kmh 30.11 in1019.6 mb 0.00 in0.0 mm 0.00 in0.0 mm 0.00 in0.0 mm
12:32 AM 42.4°F5.8°C 45.8°F7.7°C 88% 3.2 mph W5.1 kmh W 3.3 mph5.3 kmh 30.11 in1019.6 mb 0.00 in0.0 mm 0.00 in0.0 mm 0.00 in0.0 mm
12:35 AM 42.4°F5.8°C 45.7°F7.6°C 88% 1.6 mph W2.6 kmh W 1.6 mph2.6 kmh 30.11 in1019.6 mb 0.00 in0.0 mm 0.00 in0.0 mm 0.00 in0.0 mm
12:38 AM 42.4°F5.8°C 45.9°F7.7°C 88% 1.9 mph WSW3.1 kmh WSW 2.0 mph3.2 kmh 30.10 in1019.3 mb 0.00 in0.0 mm 0.00 in0.0 mm 0.00 in0.0 mm
12:41 AM 42.4°F5.8°C 46.0°F7.8°C 88% 2.4 mph W3.9 kmh W 2.4 mph3.9 kmh 30.11 in1019.6 mb 0.00 in0.0 mm 0.00 in0.0 mm 0.00 in0.0 mm
12:44 AM 42.4°F5.8°C 45.6°F7.6°C 87% 3.6 mph WNW5.8 kmh WNW 3.7 mph6.0 kmh 30.10 in1019.3 mb 0.00 in0.0 mm 0.00 in0.0 mm 0.00 in0.0 mm
12:47 AM 42.4°F5.8°C 45.8°F7.7°C 88% 3.6 mph W5.8 kmh W 3.6 mph5.8 kmh 30.10 in1019.3 mb 0.00 in0.0 mm 0.00 in0.0 mm 0.00 in0.0 mm
12:50 AM 42.4°F5.8°C 45.8°F7.7°C 88% 4.0 mph W6.4 kmh W 4.1 mph6.6 kmh 30.10 in1019.3 mb 0.00 in0.0 mm 0.00 in0.0 mm 0.00 in0.0 mm
12:53 AM 42.4°F5.8°C 45.6°F7.6°C 87% 0.4 mph NNW0.6 kmh NNW 0.4 mph0.6 kmh 30.10 in1019.3 mb 0.00 in0.0 mm 0.00 in0.0 mm 0.00 in0.0 mm
12:56 AM 42.4°F5.8°C 45.9°F7.7°C 88% Calm Calm -- 30.10 in1019.3 mb 0.00 in0.0 mm 0.00 in0.0 mm 0.00 in0.0 mm
12:59 AM 42.4°F5.8°C 45.9°F7.7°C 88% 1.2 mph W1.9 kmh W 1.2 mph1.9 kmh 30.10 in1019.3 mb 0.00 in0.0 mm 0.00 in0.0 mm 0.00 in0.0 mm
01:02 AM 42.4°F5.8°C 45.7°F7.6°C 88% 2.0 mph NW3.2 kmh NW 2.0 mph3.2 kmh 30.10 in1019.3 mb 0.00 in0.0 mm 0.00 in0.0 mm 0.00 in0.0 mm
01:05 AM 42.4°F5.8°C 45.9°F7.7°C 88% 0.4 mph NW0.6 kmh NW 0.4 mph0.6 kmh 30.10 in1019.3 mb 0.00 in0.0 mm 0.00 in0.0 mm 0.00 in0.0 mm
01:08 AM 42.4°F5.8°C 45.8°F7.7°C 88% Calm Calm -- 30.10 in1019.3 mb 0.00 in0.0 mm 0.00 in0.0 mm 0.00 in0.0 mm
01:11 AM 42.5°F5.8°C 45.9°F7.7°C 88% 3.2 mph W5.1 kmh W 3.3 mph5.3 kmh 30.10 in1019.3 mb 0.00 in0.0 mm 0.00 in0.0 mm 0.00 in0.0 mm
01:14 AM 42.4°F5.8°C 45.9°F7.7°C 88% 4.0 mph NW6.4 kmh NW 4.1 mph6.6 kmh 30.10 in1019.3 mb 0.00 in0.0 mm 0.00 in0.0 mm 0.00 in0.0 mm
01:17 AM 42.4°F5.8°C 46.1°F7.8°C 88% 1.2 mph NW1.9 kmh NW 1.2 mph1.9 kmh 30.09 in1019.0 mb 0.00 in0.0 mm 0.00 in0.0 mm 0.00 in0.0 mm
01:20 AM 42.4°F5.8°C 45.9°F7.7°C 88% Calm Calm -- 30.09 in1019.0 mb 0.00 in0.0 mm 0.00 in0.0 mm 0.00 in0.0 mm
01:23 AM 42.4°F5.8°C 45.7°F7.6°C 88% 1.5 mph NNW2.4 kmh NNW 1.6 mph2.6 kmh 30.08 in1018.6 mb 0.00 in0.0 mm 0.00 in0.0 mm 0.00 in0.0 mm
01:26 AM 42.4°F5.8°C 45.9°F7.7°C 88% 1.6 mph W2.6 kmh W 1.6 mph2.6 kmh 30.08 in1018.6 mb 0.00 in0.0 mm 0.00 in0.0 mm 0.00 in0.0 mm
01:29 AM 42.4°F5.8°C 45.8°F7.7°C 88% 5.7 mph W9.2 kmh W 5.7 mph9.2 kmh 30.08 in1018.6 mb 0.00 in0.0 mm 0.00 in0.0 mm 0.00 in0.0 mm
01:32 AM 42.4°F5.8°C 46.1°F7.8°C 88% 2.4 mph W3.9 kmh W 2.4 mph3.9 kmh 30.08 in1018.6 mb 0.00 in0.0 mm 0.00 in0.0 mm 0.00 in0.0 mm
01:35 AM 42.4°F5.8°C 45.8°F7.7°C 88% 3.6 mph WNW5.8 kmh WNW 3.6 mph5.8 kmh 30.09 in1019.0 mb 0.00 in0.0 mm 0.00 in0.0 mm 0.00 in0.0 mm
01:38 AM 42.5°F5.8°C 45.8°F7.7°C 88% 1.2 mph W1.9 kmh W 1.2 mph1.9 kmh 30.08 in1018.6 mb 0.00 in0.0 mm 0.00 in0.0 mm 0.00 in0.0 mm
01:41 AM 42.5°F5.8°C 45.7°F7.6°C 88% 2.4 mph W3.9 kmh W 2.5 mph4.0 kmh 30.08 in1018.6 mb 0.00 in0.0 mm 0.00 in0.0 mm 0.00 in0.0 mm
01:44 AM 42.5°F5.8°C 45.6°F7.6°C 88% 6.5 mph NNW10.5 kmh NNW 6.6 mph10.6 kmh 30.08 in1018.6 mb 0.00 in0.0 mm 0.00 in0.0 mm 0.00 in0.0 mm
01:47 AM 42.5°F5.8°C 45.9°F7.7°C 88% 2.4 mph NNW3.9 kmh NNW 2.4 mph3.9 kmh 30.08 in1018.6 mb 0.00 in0.0 mm 0.00 in0.0 mm 0.00 in0.0 mm
01:50 AM 42.5°F5.8°C 46.0°F7.8°C 88% 1.6 mph W2.6 kmh W 1.6 mph2.6 kmh 30.08 in1018.6 mb 0.00 in0.0 mm 0.00 in0.0 mm 0.00 in0.0 mm
01:53 AM 42.5°F5.8°C 45.5°F7.5°C 87% 0.8 mph W1.3 kmh W 0.8 mph1.3 kmh 30.08 in1018.6 mb 0.00 in0.0 mm 0.00 in0.0 mm 0.00 in0.0 mm
01:56 AM 42.5°F5.8°C 45.4°F7.4°C 87% 3.6 mph WNW5.8 kmh WNW 3.7 mph6.0 kmh 30.08 in1018.6 mb 0.00 in0.0 mm 0.00 in0.0 mm 0.00 in0.0 mm
01:59 AM 42.5°F5.8°C 45.6°F7.6°C 88% 5.7 mph W9.2 kmh W 5.7 mph9.2 kmh 30.08 in1018.6 mb 0.00 in0.0 mm 0.00 in0.0 mm 0.00 in0.0 mm
02:02 AM 42.5°F5.8°C 45.7°F7.6°C 88% 3.6 mph W5.8 kmh W 3.7 mph6.0 kmh 30.08 in1018.6 mb 0.00 in0.0 mm 0.00 in0.0 mm 0.00 in0.0 mm
02:05 AM 42.5°F5.8°C 45.4°F7.4°C 87% 1.6 mph WNW2.6 kmh WNW 1.6 mph2.6 kmh 30.08 in1018.6 mb 0.00 in0.0 mm 0.00 in0.0 mm 0.00 in0.0 mm
02:08 AM 42.5°F5.8°C 45.7°F7.6°C 88% 1.6 mph WNW2.6 kmh WNW 1.6 mph2.6 kmh 30.08 in1018.6 mb 0.00 in0.0 mm 0.00 in0.0 mm 0.00 in0.0 mm
02:11 AM 42.4°F5.8°C 45.7°F7.6°C 88% 4.4 mph W7.1 kmh W 4.5 mph7.2 kmh 30.08 in1018.6 mb 0.00 in0.0 mm 0.00 in0.0 mm 0.00 in0.0 mm
02:14 AM 42.4°F5.8°C 45.8°F7.7°C 88% Calm Calm -- 30.08 in1018.6 mb 0.00 in0.0 mm 0.00 in0.0 mm 0.00 in0.0 mm
02:17 AM 42.4°F5.8°C 45.7°F7.6°C 88% 2.8 mph NNW4.5 kmh NNW 2.9 mph4.7 kmh 30.08 in1018.6 mb 0.00 in0.0 mm 0.00 in0.0 mm 0.00 in0.0 mm
02:20 AM 42.4°F5.8°C 45.9°F7.7°C 88% 2.4 mph WSW3.9 kmh WSW 2.4 mph3.9 kmh 30.08 in1018.6 mb 0.00 in0.0 mm 0.00 in0.0 mm 0.00 in0.0 mm
02:23 AM 42.4°F5.8°C 45.2°F7.3°C 87% 2.8 mph NW4.5 kmh NW 2.8 mph4.5 kmh 30.08 in1018.6 mb 0.00 in0.0 mm 0.00 in0.0 mm 0.00 in0.0 mm
02:26 AM 42.4°F5.8°C 45.5°F7.5°C 87% 3.4 mph NW5.5 kmh NW 3.7 mph6.0 kmh 30.07 in1018.3 mb 0.00 in0.0 mm 0.00 in0.0 mm 0.00 in0.0 mm
02:29 AM 42.4°F5.8°C 45.4°F7.4°C 87% 7.6 mph WNW12.2 kmh WNW 7.6 mph12.2 kmh 30.07 in1018.3 mb 0.00 in0.0 mm 0.00 in0.0 mm 0.00 in0.0 mm
02:32 AM 42.4°F5.8°C 45.4°F7.4°C 88% 2.3 mph WNW3.7 kmh WNW 2.3 mph3.7 kmh 30.07 in1018.3 mb 0.00 in0.0 mm 0.00 in0.0 mm 0.00 in0.0 mm
02:35 AM 42.4°F5.8°C 45.7°F7.6°C 88% 4.4 mph NW7.1 kmh NW 4.4 mph7.1 kmh 30.07 in1018.3 mb 0.00 in0.0 mm 0.00 in0.0 mm 0.00 in0.0 mm
02:38 AM 42.2°F5.7°C 45.7°F7.6°C 88% 2.0 mph NNW3.2 kmh NNW 2.0 mph3.2 kmh 30.08 in1018.6 mb 0.00 in0.0 mm 0.00 in0.0 mm 0.00 in0.0 mm
02:41 AM 42.2°F5.7°C 45.7°F7.6°C 88% 1.2 mph NW1.9 kmh NW 1.2 mph1.9 kmh 30.07 in1018.3 mb 0.00 in0.0 mm 0.00 in0.0 mm 0.00 in0.0 mm
02:44 AM 42.2°F5.7°C 45.8°F7.7°C 88% 1.6 mph NNW2.6 kmh NNW 1.6 mph2.6 kmh 30.08 in1018.6 mb 0.00 in0.0 mm 0.00 in0.0 mm 0.00 in0.0 mm
02:47 AM 42.1°F5.6°C 45.6°F7.6°C 88% 4.9 mph WSW7.9 kmh WSW 4.9 mph7.9 kmh 30.08 in1018.6 mb 0.00 in0.0 mm 0.00 in0.0 mm 0.00 in0.0 mm
02:50 AM 42.2°F5.7°C 45.5°F7.5°C 87% 2.0 mph NW3.2 kmh NW 2.0 mph3.2 kmh 30.08 in1018.6 mb 0.00 in0.0 mm 0.00 in0.0 mm 0.00 in0.0 mm
02:53 AM 42.2°F5.7°C 45.5°F7.5°C 88% 4.0 mph NW6.4 kmh NW 4.1 mph6.6 kmh 30.08 in1018.6 mb 0.00 in0.0 mm 0.00 in0.0 mm 0.00 in0.0 mm
02:56 AM 42.4°F5.8°C 45.6°F7.6°C 88% 2.0 mph W3.2 kmh W 2.0 mph3.2 kmh 30.08 in1018.6 mb 0.00 in0.0 mm 0.00 in0.0 mm 0.00 in0.0 mm
02:59 AM 42.2°F5.7°C 45.7°F7.6°C 88% 4.0 mph NW6.4 kmh NW 4.1 mph6.6 kmh 30.08 in1018.6 mb 0.00 in0.0 mm 0.00 in0.0 mm 0.00 in0.0 mm
03:02 AM 42.2°F5.7°C 45.8°F7.7°C 88% 3.2 mph WNW5.1 kmh WNW 3.2 mph5.1 kmh 30.08 in1018.6 mb 0.00 in0.0 mm 0.00 in0.0 mm 0.00 in0.0 mm
03:05 AM 42.2°F5.7°C 45.8°F7.7°C 88% 1.2 mph W1.9 kmh W 1.2 mph1.9 kmh 30.08 in1018.6 mb 0.00 in0.0 mm 0.00 in0.0 mm 0.00 in0.0 mm
03:08 AM 42.2°F5.7°C 45.6°F7.6°C 88% 5.2 mph W8.4 kmh W 5.2 mph8.4 kmh 30.07 in1018.3 mb 0.00 in0.0 mm 0.00 in0.0 mm 0.00 in0.0 mm
03:14 AM 42.2°F5.7°C 45.5°F7.5°C 88% 0.8 mph W1.3 kmh W 0.8 mph1.3 kmh 30.08 in1018.6 mb 0.00 in0.0 mm 0.00 in0.0 mm 0.00 in0.0 mm
03:17 AM 42.2°F5.7°C 45.8°F7.7°C 88% 5.3 mph W8.5 kmh W 5.3 mph8.5 kmh 30.08 in1018.6 mb 0.00 in0.0 mm 0.00 in0.0 mm 0.00 in0.0 mm
03:20 AM 42.2°F5.7°C 45.4°F7.4°C 88% 7.3 mph NW11.7 kmh NW 7.3 mph11.7 kmh 30.08 in1018.6 mb 0.00 in0.0 mm 0.00 in0.0 mm 0.00 in0.0 mm
03:23 AM 42.2°F5.7°C 45.6°F7.6°C 88% 2.0 mph NNW3.2 kmh NNW 2.0 mph3.2 kmh 30.07 in1018.3 mb 0.00 in0.0 mm 0.00 in0.0 mm 0.00 in0.0 mm
03:26 AM 42.2°F5.7°C 45.5°F7.5°C 87% 2.4 mph WNW3.9 kmh WNW 2.4 mph3.9 kmh 30.07 in1018.3 mb 0.00 in0.0 mm 0.00 in0.0 mm 0.00 in0.0 mm
03:29 AM 42.1°F5.6°C 45.5°F7.5°C 87% 1.6 mph NNW2.6 kmh NNW 1.6 mph2.6 kmh 30.07 in1018.3 mb 0.00 in0.0 mm 0.00 in0.0 mm 0.00 in0.0 mm
03:32 AM 42.1°F5.6°C 45.7°F7.6°C 88% 4.0 mph W6.4 kmh W 4.0 mph6.4 kmh 30.07 in1018.3 mb 0.00 in0.0 mm 0.00 in0.0 mm 0.00 in0.0 mm
03:35 AM 42.1°F5.6°C 45.3°F7.4°C 87% 1.6 mph NW2.6 kmh NW 1.6 mph2.6 kmh 30.07 in1018.3 mb 0.00 in0.0 mm 0.00 in0.0 mm 0.00 in0.0 mm
03:38 AM 42.1°F5.6°C 45.3°F7.4°C 86% 4.4 mph NNW7.1 kmh NNW 4.4 mph7.1 kmh 30.07 in1018.3 mb 0.00 in0.0 mm 0.00 in0.0 mm 0.00 in0.0 mm
03:41 AM 42.1°F5.6°C 45.2°F7.3°C 87% 2.7 mph WNW4.3 kmh WNW 2.7 mph4.3 kmh 30.07 in1018.3 mb 0.00 in0.0 mm 0.00 in0.0 mm 0.00 in0.0 mm
03:44 AM 42.1°F5.6°C 45.2°F7.3°C 87% 4.0 mph NW6.4 kmh NW 4.1 mph6.6 kmh 30.07 in1018.3 mb 0.00 in0.0 mm 0.00 in0.0 mm 0.00 in0.0 mm
03:47 AM 42.1°F5.6°C 45.4°F7.4°C 87% 4.0 mph W6.4 kmh W 4.1 mph6.6 kmh 30.07 in1018.3 mb 0.00 in0.0 mm 0.00 in0.0 mm 0.00 in0.0 mm
03:50 AM 42.1°F5.6°C 45.3°F7.4°C 87% 5.3 mph W8.5 kmh W 5.3 mph8.5 kmh 30.07 in1018.3 mb 0.00 in0.0 mm 0.00 in0.0 mm 0.00 in0.0 mm
03:53 AM 42.1°F5.6°C 45.2°F7.3°C 87% Calm Calm -- 30.07 in1018.3 mb 0.00 in0.0 mm 0.00 in0.0 mm 0.00 in0.0 mm
03:56 AM 42.0°F5.6°C 45.3°F7.4°C 87% 2.7 mph NNW4.3 kmh NNW 2.9 mph4.7 kmh 30.06 in1017.9 mb 0.00 in0.0 mm 0.00 in0.0 mm 0.00 in0.0 mm
03:59 AM 42.0°F5.6°C 45.4°F7.4°C 87% 3.2 mph NNW5.1 kmh NNW 3.2 mph5.1 kmh 30.06 in1017.9 mb 0.00 in0.0 mm 0.00 in0.0 mm 0.00 in0.0 mm
04:02 AM 42.0°F5.6°C 45.3°F7.4°C 87% 8.0 mph W12.9 kmh W 8.0 mph12.9 kmh 30.06 in1017.9 mb 0.00 in0.0 mm 0.00 in0.0 mm 0.00 in0.0 mm
04:05 AM 42.0°F5.6°C 45.3°F7.4°C 87% 2.8 mph WNW4.5 kmh WNW 2.8 mph4.5 kmh 30.06 in1017.9 mb 0.00 in0.0 mm 0.00 in0.0 mm 0.00 in0.0 mm
04:08 AM 42.0°F5.6°C 45.1°F7.3°C 87% 2.8 mph NNW4.5 kmh NNW 2.9 mph4.7 kmh 30.06 in1017.9 mb 0.00 in0.0 mm 0.00 in0.0 mm 0.00 in0.0 mm
04:11 AM 41.9°F5.5°C 45.2°F7.3°C 87% 3.9 mph W6.3 kmh W 3.9 mph6.3 kmh 30.06 in1017.9 mb 0.00 in0.0 mm 0.00 in0.0 mm 0.00 in0.0 mm
04:14 AM 41.9°F5.5°C 45.1°F7.3°C 87% 4.4 mph W7.1 kmh W 4.4 mph7.1 kmh 30.05 in1017.6 mb 0.00 in0.0 mm 0.00 in0.0 mm 0.00 in0.0 mm
04:17 AM 41.9°F5.5°C 45.0°F7.2°C 87% 4.8 mph W7.7 kmh W 4.9 mph7.9 kmh 30.05 in1017.6 mb 0.00 in0.0 mm 0.00 in0.0 mm 0.00 in0.0 mm
04:20 AM 41.9°F5.5°C 45.0°F7.2°C 87% 4.8 mph W7.7 kmh W 4.9 mph7.9 kmh 30.04 in1017.3 mb 0.00 in0.0 mm 0.00 in0.0 mm 0.00 in0.0 mm
04:23 AM 41.8°F5.4°C 45.0°F7.2°C 87% 3.2 mph W5.1 kmh W 3.2 mph5.1 kmh 30.04 in1017.3 mb 0.00 in0.0 mm 0.00 in0.0 mm 0.00 in0.0 mm
04:26 AM 41.8°F5.4°C 44.8°F7.1°C 87% 5.8 mph NNW9.3 kmh NNW 5.8 mph9.3 kmh 30.04 in1017.3 mb 0.00 in0.0 mm 0.00 in0.0 mm 0.00 in0.0 mm
04:29 AM 41.8°F5.4°C 45.0°F7.2°C 87% 1.2 mph NNW1.9 kmh NNW 1.2 mph1.9 kmh 30.03 in1016.9 mb 0.00 in0.0 mm 0.00 in0.0 mm 0.00 in0.0 mm
04:32 AM 41.7°F5.4°C 45.0°F7.2°C 87% 3.2 mph W5.1 kmh W 3.3 mph5.3 kmh 30.03 in1016.9 mb 0.00 in0.0 mm 0.00 in0.0 mm 0.00 in0.0 mm
04:35 AM 41.7°F5.4°C 44.8°F7.1°C 86% 2.8 mph NW4.5 kmh NW 2.9 mph4.7 kmh 30.03 in1016.9 mb 0.00 in0.0 mm 0.00 in0.0 mm 0.00 in0.0 mm
04:38 AM 41.8°F5.4°C 44.9°F7.2°C 86% 4.0 mph WNW6.4 kmh WNW 4.0 mph6.4 kmh 30.04 in1017.3 mb 0.00 in0.0 mm 0.00 in0.0 mm 0.00 in0.0 mm
04:41 AM 41.7°F5.4°C 44.5°F6.9°C 86% 4.5 mph WSW7.2 kmh WSW 4.5 mph7.2 kmh 30.04 in1017.3 mb 0.00 in0.0 mm 0.00 in0.0 mm 0.00 in0.0 mm
04:44 AM 41.8°F5.4°C 44.8°F7.1°C 86% 2.4 mph W3.9 kmh W 2.4 mph3.9 kmh 30.03 in1016.9 mb 0.00 in0.0 mm 0.00 in0.0 mm 0.00 in0.0 mm
04:47 AM 41.8°F5.4°C 44.6°F7.0°C 86% 2.4 mph WSW3.9 kmh WSW 2.5 mph4.0 kmh 30.04 in1017.3 mb 0.00 in0.0 mm 0.00 in0.0 mm 0.00 in0.0 mm
04:50 AM 41.7°F5.4°C 44.7°F7.1°C 86% 3.2 mph W5.1 kmh W 3.3 mph5.3 kmh 30.03 in1016.9 mb 0.00 in0.0 mm 0.00 in0.0 mm 0.00 in0.0 mm
04:53 AM 41.7°F5.4°C 44.5°F6.9°C 86% 3.2 mph NW5.1 kmh NW 3.3 mph5.3 kmh 30.03 in1016.9 mb 0.00 in0.0 mm 0.00 in0.0 mm 0.00 in0.0 mm
04:56 AM 41.7°F5.4°C 44.4°F6.9°C 86% 3.1 mph NNW5.0 kmh NNW 3.1 mph5.0 kmh 30.03 in1016.9 mb 0.00 in0.0 mm 0.00 in0.0 mm 0.00 in0.0 mm
04:59 AM 41.7°F5.4°C 44.4°F6.9°C 86% 3.9 mph W6.3 kmh W 4.0 mph6.4 kmh 30.04 in1017.3 mb 0.00 in0.0 mm 0.00 in0.0 mm 0.00 in0.0 mm
05:02 AM 41.7°F5.4°C 44.3°F6.8°C 85% 4.3 mph NNW6.9 kmh NNW 4.4 mph7.1 kmh 30.03 in1016.9 mb 0.00 in0.0 mm 0.00 in0.0 mm 0.00 in0.0 mm
05:05 AM 41.7°F5.4°C 44.5°F6.9°C 86% 6.0 mph W9.7 kmh W 6.0 mph9.7 kmh 30.03 in1016.9 mb 0.00 in0.0 mm 0.00 in0.0 mm 0.00 in0.0 mm
05:08 AM 41.6°F5.3°C 44.4°F6.9°C 86% 0.8 mph WNW1.3 kmh WNW 0.8 mph1.3 kmh 30.03 in1016.9 mb 0.00 in0.0 mm 0.00 in0.0 mm 0.00 in0.0 mm
05:11 AM 41.7°F5.4°C 44.0°F6.7°C 84% 3.6 mph W5.8 kmh W 3.6 mph5.8 kmh 30.03 in1016.9 mb 0.00 in0.0 mm 0.00 in0.0 mm 0.00 in0.0 mm
05:14 AM 41.6°F5.3°C 44.4°F6.9°C 85% 4.0 mph NNW6.4 kmh NNW 4.0 mph6.4 kmh 30.04 in1017.3 mb 0.00 in0.0 mm 0.00 in0.0 mm 0.00 in0.0 mm
05:17 AM 41.7°F5.4°C 44.1°F6.7°C 85% 7.2 mph W11.6 kmh W 7.3 mph11.7 kmh 30.03 in1016.9 mb 0.00 in0.0 mm 0.00 in0.0 mm 0.00 in0.0 mm
05:20 AM 41.6°F5.3°C 44.2°F6.8°C 85% 3.2 mph W5.1 kmh W 3.2 mph5.1 kmh 30.03 in1016.9 mb 0.00 in0.0 mm 0.00 in0.0 mm 0.00 in0.0 mm
05:23 AM 41.6°F5.3°C 44.3°F6.8°C 85% 4.8 mph WNW7.7 kmh WNW 4.9 mph7.9 kmh 30.03 in1016.9 mb 0.00 in0.0 mm 0.00 in0.0 mm 0.00 in0.0 mm
05:26 AM 41.6°F5.3°C 44.3°F6.8°C 86% 3.1 mph NW5.0 kmh NW 3.1 mph5.0 kmh 30.04 in1017.3 mb 0.00 in0.0 mm 0.00 in0.0 mm 0.00 in0.0 mm
05:29 AM 41.6°F5.3°C 44.2°F6.8°C 85% 2.8 mph W4.5 kmh W 2.8 mph4.5 kmh 30.04 in1017.3 mb 0.00 in0.0 mm 0.00 in0.0 mm 0.00 in0.0 mm
05:32 AM 41.6°F5.3°C 44.2°F6.8°C 85% 1.2 mph W1.9 kmh W 1.2 mph1.9 kmh 30.04 in1017.3 mb 0.00 in0.0 mm 0.00 in0.0 mm 0.00 in0.0 mm
05:35 AM 41.6°F5.3°C 44.2°F6.8°C 85% 3.6 mph W5.8 kmh W 3.6 mph5.8 kmh 30.03 in1016.9 mb 0.00 in0.0 mm 0.00 in0.0 mm 0.00 in0.0 mm
05:38 AM 41.6°F5.3°C 44.1°F6.7°C 85% 5.2 mph WSW8.4 kmh WSW 5.2 mph8.4 kmh 30.03 in1016.9 mb 0.00 in0.0 mm 0.00 in0.0 mm 0.00 in0.0 mm
05:41 AM 41.5°F5.3°C 44.0°F6.7°C 85% 8.0 mph W12.9 kmh W 8.1 mph13.0 kmh 30.03 in1016.9 mb 0.00 in0.0 mm 0.00 in0.0 mm 0.00 in0.0 mm
05:44 AM 41.5°F5.3°C 44.1°F6.7°C 85% 4.0 mph W6.4 kmh W 4.1 mph6.6 kmh 30.03 in1016.9 mb 0.00 in0.0 mm 0.00 in0.0 mm 0.00 in0.0 mm
05:50 AM 41.3°F5.2°C 44.4°F6.9°C 85% 4.0 mph NNW6.4 kmh NNW 4.1 mph6.6 kmh 30.02 in1016.6 mb 0.00 in0.0 mm 0.00 in0.0 mm 0.00 in0.0 mm
05:53 AM 41.3°F5.2°C 43.7°F6.5°C 85% 4.4 mph W7.1 kmh W 4.5 mph7.2 kmh 30.03 in1016.9 mb 0.00 in0.0 mm 0.00 in0.0 mm 0.00 in0.0 mm
05:56 AM 41.3°F5.2°C 43.8°F6.6°C 85% 6.5 mph NNW10.5 kmh NNW 6.5 mph10.5 kmh 30.03 in1016.9 mb 0.00 in0.0 mm 0.00 in0.0 mm 0.00 in0.0 mm
05:59 AM 41.3°F5.2°C 43.7°F6.5°C 84% 1.6 mph NW2.6 kmh NW 1.6 mph2.6 kmh 30.03 in1016.9 mb 0.00 in0.0 mm 0.00 in0.0 mm 0.00 in0.0 mm
06:02 AM 41.3°F5.2°C 43.9°F6.6°C 85% 1.6 mph NNW2.6 kmh NNW 1.6 mph2.6 kmh 30.03 in1016.9 mb 0.00 in0.0 mm 0.00 in0.0 mm 0.00 in0.0 mm
06:05 AM 41.3°F5.2°C 43.7°F6.5°C 84% 4.4 mph WNW7.1 kmh WNW 4.4 mph7.1 kmh 30.03 in1016.9 mb 0.00 in0.0 mm 0.00 in0.0 mm 0.00 in0.0 mm
06:08 AM 41.3°F5.2°C 43.7°F6.5°C 85% 0.4 mph WNW0.6 kmh WNW 0.4 mph0.6 kmh 30.03 in1016.9 mb 0.00 in0.0 mm 0.00 in0.0 mm 0.00 in0.0 mm
06:11 AM 41.3°F5.2°C 43.8°F6.6°C 84% 1.6 mph W2.6 kmh W 1.6 mph2.6 kmh 30.03 in1016.9 mb 0.00 in0.0 mm 0.00 in0.0 mm 0.00 in0.0 mm
06:14 AM 41.2°F5.1°C 43.6°F6.4°C 84% 7.2 mph NNW11.6 kmh NNW 7.2 mph11.6 kmh 30.03 in1016.9 mb 0.00 in0.0 mm 0.00 in0.0 mm 0.00 in0.0 mm
06:17 AM 41.2°F5.1°C 43.7°F6.5°C 84% 2.4 mph W3.9 kmh W 2.4 mph3.9 kmh 30.03 in1016.9 mb 0.00 in0.0 mm 0.00 in0.0 mm 0.00 in0.0 mm
06:20 AM 41.2°F5.1°C 43.6°F6.4°C 84% 2.0 mph NNW3.2 kmh NNW 2.0 mph3.2 kmh 30.03 in1016.9 mb 0.00 in0.0 mm 0.00 in0.0 mm 0.00 in0.0 mm
06:23 AM 41.2°F5.1°C 43.7°F6.5°C 84% Calm Calm -- 30.01 in1016.3 mb 0.00 in0.0 mm 0.00 in0.0 mm 0.00 in0.0 mm
06:26 AM 41.1°F5.1°C 43.6°F6.4°C 84% 4.6 mph NW7.4 kmh NW 4.7 mph7.6 kmh 30.01 in1016.3 mb 0.00 in0.0 mm 0.00 in0.0 mm 0.00 in0.0 mm
06:29 AM 41.1°F5.1°C 43.7°F6.5°C 84% 2.8 mph WNW4.5 kmh WNW 2.9 mph4.7 kmh 30.02 in1016.6 mb 0.00 in0.0 mm 0.00 in0.0 mm 0.00 in0.0 mm
06:32 AM 41.2°F5.1°C 43.8°F6.6°C 85% 5.2 mph W8.4 kmh W 5.2 mph8.4 kmh 30.02 in1016.6 mb 0.00 in0.0 mm 0.00 in0.0 mm 0.00 in0.0 mm
06:35 AM 41.1°F5.1°C 43.9°F6.6°C 85% 2.8 mph WSW4.5 kmh WSW 2.9 mph4.7 kmh 30.02 in1016.6 mb 0.00 in0.0 mm 0.00 in0.0 mm 0.00 in0.0 mm
06:38 AM 41.1°F5.1°C 43.5°F6.4°C 84% 3.2 mph NNW5.1 kmh NNW 3.3 mph5.3 kmh 30.02 in1016.6 mb 0.00 in0.0 mm 0.00 in0.0 mm 0.00 in0.0 mm
06:41 AM 41.1°F5.1°C 43.5°F6.4°C 84% 5.3 mph NNW8.5 kmh NNW 5.3 mph8.5 kmh 30.03 in1016.9 mb 0.00 in0.0 mm 0.00 in0.0 mm 0.00 in0.0 mm
06:44 AM 41.0°F5.0°C 43.5°F6.4°C 84% 2.8 mph NW4.5 kmh NW 2.8 mph4.5 kmh 30.02 in1016.6 mb 0.00 in0.0 mm 0.00 in0.0 mm 0.00 in0.0 mm
06:47 AM 41.0°F5.0°C 43.4°F6.3°C 85% 2.4 mph W3.9 kmh W 2.4 mph3.9 kmh 30.02 in1016.6 mb 0.00 in0.0 mm 0.00 in0.0 mm 0.00 in0.0 mm
06:50 AM 41.0°F5.0°C 43.7°F6.5°C 85% 3.2 mph NNW5.1 kmh NNW 3.3 mph5.3 kmh 30.02 in1016.6 mb 0.00 in0.0 mm 0.00 in0.0 mm 0.00 in0.0 mm
06:53 AM 40.9°F4.9°C 43.5°F6.4°C 84% 0.8 mph W1.3 kmh W 0.8 mph1.3 kmh 30.02 in1016.6 mb 0.00 in0.0 mm 0.00 in0.0 mm 0.00 in0.0 mm
06:56 AM 40.9°F4.9°C 43.6°F6.4°C 85% 7.3 mph W11.7 kmh W 7.3 mph11.7 kmh 30.02 in1016.6 mb 0.00 in0.0 mm 0.00 in0.0 mm 0.00 in0.0 mm
06:59 AM 40.9°F4.9°C 43.6°F6.4°C 85% 4.0 mph NNW6.4 kmh NNW 4.0 mph6.4 kmh 30.02 in1016.6 mb 0.00 in0.0 mm 0.00 in0.0 mm 0.00 in0.0 mm
07:02 AM 40.8°F4.9°C 43.7°F6.5°C 85% 3.6 mph W5.8 kmh W 3.6 mph5.8 kmh 30.02 in1016.6 mb 0.00 in0.0 mm 0.00 in0.0 mm 0.00 in0.0 mm
07:05 AM 40.7°F4.8°C 43.6°F6.4°C 85% 1.6 mph W2.6 kmh W 1.6 mph2.6 kmh 30.01 in1016.3 mb 0.00 in0.0 mm 0.00 in0.0 mm 0.00 in0.0 mm
07:08 AM 40.7°F4.8°C 43.8°F6.6°C 85% 5.2 mph W8.4 kmh W 5.3 mph8.5 kmh 30.02 in1016.6 mb 0.00 in0.0 mm 0.00 in0.0 mm 0.00 in0.0 mm
07:11 AM 40.6°F4.8°C 44.0°F6.7°C 86% 3.6 mph W5.8 kmh W 3.7 mph6.0 kmh 30.01 in1016.3 mb 0.00 in0.0 mm 0.00 in0.0 mm 0.00 in0.0 mm
07:14 AM 40.6°F4.8°C 43.7°F6.5°C 86% 3.6 mph W5.8 kmh W 3.7 mph6.0 kmh 30.02 in1016.6 mb 0.00 in0.0 mm 0.00 in0.0 mm 0.00 in0.0 mm
07:17 AM 40.4°F4.7°C 43.6°F6.4°C 86% 4.0 mph WNW6.4 kmh WNW 4.0 mph6.4 kmh 30.03 in1016.9 mb 0.00 in0.0 mm 0.00 in0.0 mm 0.00 in0.0 mm
07:20 AM 40.3°F4.6°C 43.7°F6.5°C 86% 4.8 mph NNW7.7 kmh NNW 4.9 mph7.9 kmh 30.03 in1016.9 mb 0.00 in0.0 mm 0.00 in0.0 mm 0.00 in0.0 mm
07:23 AM 40.3°F4.6°C 43.7°F6.5°C 86% 2.8 mph WNW4.5 kmh WNW 2.8 mph4.5 kmh 30.03 in1016.9 mb 0.00 in0.0 mm 0.00 in0.0 mm 0.00 in0.0 mm
07:26 AM 40.3°F4.6°C 43.6°F6.4°C 86% 2.0 mph NW3.2 kmh NW 2.0 mph3.2 kmh 30.02 in1016.6 mb 0.00 in0.0 mm 0.00 in0.0 mm 0.00 in0.0 mm
07:29 AM 40.3°F4.6°C 43.6°F6.4°C 86% Calm Calm -- 30.03 in1016.9 mb 0.00 in0.0 mm 0.00 in0.0 mm 0.00 in0.0 mm
07:32 AM 40.2°F4.6°C 43.9°F6.6°C 87% 1.6 mph W2.6 kmh W 1.6 mph2.6 kmh 30.03 in1016.9 mb 0.00 in0.0 mm 0.00 in0.0 mm 0.02 in0.5 mm
07:35 AM 40.2°F4.6°C 43.9°F6.6°C 87% 2.0 mph W3.2 kmh W 2.0 mph3.2 kmh 30.02 in1016.6 mb 0.00 in0.0 mm 0.00 in0.0 mm 0.02 in0.5 mm
07:41 AM 40.2°F4.6°C 43.8°F6.6°C 87% 2.4 mph W3.9 kmh W 2.4 mph3.9 kmh 30.03 in1016.9 mb 0.00 in0.0 mm 0.00 in0.0 mm 0.02 in0.5 mm
07:44 AM 40.1°F4.5°C 43.8°F6.6°C 87% 2.4 mph W3.9 kmh W 2.4 mph3.9 kmh 30.02 in1016.6 mb 0.00 in0.0 mm 0.00 in0.0 mm 0.02 in0.5 mm
07:47 AM 40.1°F4.5°C 44.0°F6.7°C 87% 1.6 mph W2.6 kmh W 1.6 mph2.6 kmh 30.02 in1016.6 mb 0.00 in0.0 mm 0.00 in0.0 mm 0.02 in0.5 mm
07:50 AM 40.1°F4.5°C 43.9°F6.6°C 87% 4.5 mph W7.2 kmh W 4.5 mph7.2 kmh 30.02 in1016.6 mb 0.00 in0.0 mm 0.00 in0.0 mm 0.02 in0.5 mm
07:53 AM 40.0°F4.4°C 43.6°F6.4°C 87% 3.8 mph W6.1 kmh W 3.8 mph6.1 kmh 30.02 in1016.6 mb 0.00 in0.0 mm 0.00 in0.0 mm 0.02 in0.5 mm
07:56 AM 40.0°F4.4°C 43.7°F6.5°C 87% 1.6 mph W2.6 kmh W 1.6 mph2.6 kmh 30.01 in1016.3 mb 0.00 in0.0 mm 0.00 in0.0 mm 0.02 in0.5 mm
07:59 AM 39.9°F4.4°C 43.6°F6.4°C 87% 2.8 mph WNW4.5 kmh WNW 2.9 mph4.7 kmh 30.02 in1016.6 mb 0.00 in0.0 mm 0.00 in0.0 mm 0.02 in0.5 mm
08:02 AM 39.9°F4.4°C 43.7°F6.5°C 88% 1.6 mph W2.6 kmh W 1.6 mph2.6 kmh 30.01 in1016.3 mb 0.00 in0.0 mm 0.00 in0.0 mm 0.02 in0.5 mm
08:05 AM 39.9°F4.4°C 43.8°F6.6°C 88% 3.6 mph WSW5.8 kmh WSW 3.6 mph5.8 kmh 30.01 in1016.3 mb 0.00 in0.0 mm 0.00 in0.0 mm 0.02 in0.5 mm
08:08 AM 39.9°F4.4°C 43.6°F6.4°C 88% 1.2 mph W1.9 kmh W 1.2 mph1.9 kmh 30.01 in1016.3 mb 0.00 in0.0 mm 0.00 in0.0 mm 0.02 in0.5 mm
08:11 AM 39.8°F4.3°C 43.5°F6.4°C 87% Calm Calm -- 30.01 in1016.3 mb 0.00 in0.0 mm 0.00 in0.0 mm 0.02 in0.5 mm
08:14 AM 39.8°F4.3°C 43.7°F6.5°C 88% 1.2 mph W1.9 kmh W 1.2 mph1.9 kmh 30.01 in1016.3 mb 0.00 in0.0 mm 0.00 in0.0 mm 0.02 in0.5 mm
08:17 AM 39.8°F4.3°C 43.5°F6.4°C 87% 2.8 mph W4.5 kmh W 2.9 mph4.7 kmh 30.01 in1016.3 mb 0.00 in0.0 mm 0.00 in0.0 mm 0.02 in0.5 mm
08:20 AM 39.8°F4.3°C 43.7°F6.5°C 88% 0.4 mph SW0.6 kmh SW 0.4 mph0.6 kmh 30.01 in1016.3 mb 0.00 in0.0 mm 0.00 in0.0 mm 0.02 in0.5 mm
08:23 AM 39.8°F4.3°C 43.5°F6.4°C 87% 1.5 mph NNW2.4 kmh NNW 1.6 mph2.6 kmh 30.01 in1016.3 mb 0.00 in0.0 mm 0.00 in0.0 mm 0.02 in0.5 mm
08:26 AM 39.8°F4.3°C 43.6°F6.4°C 88% 0.4 mph WSW0.6 kmh WSW 0.4 mph0.6 kmh 30.01 in1016.3 mb 0.00 in0.0 mm 0.00 in0.0 mm 0.02 in0.5 mm
08:29 AM 39.8°F4.3°C 43.7°F6.5°C 88% 1.6 mph W2.6 kmh W 1.6 mph2.6 kmh 30.01 in1016.3 mb 0.00 in0.0 mm 0.00 in0.0 mm 0.02 in0.5 mm
08:32 AM 39.8°F4.3°C 43.6°F6.4°C 88% 2.8 mph SW4.5 kmh SW 2.8 mph4.5 kmh 30.01 in1016.3 mb 0.00 in0.0 mm 0.00 in0.0 mm 0.02 in0.5 mm
08:35 AM 39.8°F4.3°C 43.8°F6.6°C 88% 3.7 mph NW6.0 kmh NW 3.7 mph6.0 kmh 30.01 in1016.3 mb 0.00 in0.0 mm 0.00 in0.0 mm 0.02 in0.5 mm
08:38 AM 39.8°F4.3°C 43.6°F6.4°C 88% 4.8 mph NNW7.7 kmh NNW 4.8 mph7.7 kmh 30.01 in1016.3 mb 0.00 in0.0 mm 0.00 in0.0 mm 0.02 in0.5 mm
08:41 AM 39.7°F4.3°C 43.4°F6.3°C 88% 3.2 mph WNW5.1 kmh WNW 3.2 mph5.1 kmh 30.01 in1016.3 mb 0.00 in0.0 mm 0.00 in0.0 mm 0.02 in0.5 mm
08:44 AM 39.8°F4.3°C 43.7°F6.5°C 88% 2.4 mph NW3.9 kmh NW 2.4 mph3.9 kmh 30.01 in1016.3 mb 0.00 in0.0 mm 0.00 in0.0 mm 0.02 in0.5 mm
08:47 AM 39.8°F4.3°C 43.8°F6.6°C 88% Calm Calm -- 30.01 in1016.3 mb 0.00 in0.0 mm 0.00 in0.0 mm 0.02 in0.5 mm
08:50 AM 39.8°F4.3°C 43.3°F6.3°C 87% Calm Calm -- 30.01 in1016.3 mb 0.00 in0.0 mm 0.00 in0.0 mm 0.02 in0.5 mm
08:53 AM 39.7°F4.3°C 43.4°F6.3°C 88% Calm Calm -- 30.01 in1016.3 mb 0.00 in0.0 mm 0.00 in0.0 mm 0.02 in0.5 mm
08:56 AM 39.8°F4.3°C 43.6°F6.4°C 88% 0.4 mph W0.6 kmh W 0.4 mph0.6 kmh 30.01 in1016.3 mb 0.00 in0.0 mm 0.00 in0.0 mm 0.02 in0.5 mm
08:59 AM 39.7°F4.3°C 43.2°F6.2°C 88% 2.0 mph WSW3.2 kmh WSW 2.0 mph3.2 kmh 30.01 in1016.3 mb 0.00 in0.0 mm 0.00 in0.0 mm 0.02 in0.5 mm
09:02 AM 39.7°F4.3°C 43.6°F6.4°C 88% 3.2 mph W5.1 kmh W 3.3 mph5.3 kmh 30.00 in1015.9 mb 0.00 in0.0 mm 0.00 in0.0 mm 0.02 in0.5 mm
09:05 AM 39.7°F4.3°C 43.4°F6.3°C 88% Calm Calm -- 30.00 in1015.9 mb 0.00 in0.0 mm 0.00 in0.0 mm 0.02 in0.5 mm
09:08 AM 39.7°F4.3°C 43.5°F6.4°C 88% 0.4 mph NNW0.6 kmh NNW 0.4 mph0.6 kmh 30.00 in1015.9 mb 0.00 in0.0 mm 0.00 in0.0 mm 0.02 in0.5 mm
09:11 AM 39.7°F4.3°C 43.4°F6.3°C 88% 1.2 mph W1.9 kmh W 1.2 mph1.9 kmh 30.00 in1015.9 mb 0.00 in0.0 mm 0.00 in0.0 mm 0.04 in1.0 mm
09:14 AM 39.7°F4.3°C 43.7°F6.5°C 88% 2.7 mph SW4.3 kmh SW 2.7 mph4.3 kmh 30.00 in1015.9 mb 0.00 in0.0 mm 0.00 in0.0 mm 0.04 in1.0 mm
09:17 AM 39.8°F4.3°C 43.7°F6.5°C 89% 0.4 mph NNW0.6 kmh NNW 0.4 mph0.6 kmh 30.00 in1015.9 mb 0.00 in0.0 mm 0.00 in0.0 mm 0.04 in1.0 mm
09:20 AM 39.7°F4.3°C 43.6°F6.4°C 89% 0.4 mph WSW0.6 kmh WSW 0.4 mph0.6 kmh 30.00 in1015.9 mb 0.00 in0.0 mm 0.00 in0.0 mm 0.04 in1.0 mm
09:23 AM 39.7°F4.3°C 43.6°F6.4°C 88% 2.0 mph SW3.2 kmh SW 2.0 mph3.2 kmh 30.00 in1015.9 mb 0.00 in0.0 mm 0.00 in0.0 mm 0.04 in1.0 mm
09:26 AM 39.7°F4.3°C 43.5°F6.4°C 88% 1.2 mph SW1.9 kmh SW 1.2 mph1.9 kmh 30.00 in1015.9 mb 0.00 in0.0 mm 0.00 in0.0 mm 0.04 in1.0 mm
09:29 AM 39.7°F4.3°C 43.7°F6.5°C 89% 2.8 mph SW4.5 kmh SW 2.8 mph4.5 kmh 29.99 in1015.6 mb 0.00 in0.0 mm 0.00 in0.0 mm 0.04 in1.0 mm
09:32 AM 39.8°F4.3°C 43.7°F6.5°C 88% 1.6 mph SW2.6 kmh SW 1.6 mph2.6 kmh 29.99 in1015.6 mb 0.00 in0.0 mm 0.00 in0.0 mm 0.04 in1.0 mm
09:35 AM 39.7°F4.3°C 43.6°F6.4°C 89% Calm Calm -- 29.99 in1015.6 mb 0.00 in0.0 mm 0.00 in0.0 mm 0.04 in1.0 mm
09:38 AM 39.7°F4.3°C 43.4°F6.3°C 88% 3.0 mph NNW4.8 kmh NNW 3.2 mph5.1 kmh 29.99 in1015.6 mb 0.00 in0.0 mm 0.00 in0.0 mm 0.04 in1.0 mm
09:41 AM 39.8°F4.3°C 43.6°F6.4°C 88% 4.0 mph SW6.4 kmh SW 4.1 mph6.6 kmh 29.98 in1015.2 mb 0.00 in0.0 mm 0.00 in0.0 mm 0.04 in1.0 mm
09:44 AM 39.8°F4.3°C 43.5°F6.4°C 88% 2.0 mph SW3.2 kmh SW 2.0 mph3.2 kmh 29.98 in1015.2 mb 0.00 in0.0 mm 0.00 in0.0 mm 0.04 in1.0 mm
09:47 AM 39.8°F4.3°C 43.5°F6.4°C 88% 4.0 mph SW6.4 kmh SW 4.1 mph6.6 kmh 29.98 in1015.2 mb 0.00 in0.0 mm 0.00 in0.0 mm 0.04 in1.0 mm
09:50 AM 39.7°F4.3°C 43.3°F6.3°C 88% 2.8 mph W4.5 kmh W 2.9 mph4.7 kmh 29.98 in1015.2 mb 0.00 in0.0 mm 0.00 in0.0 mm 0.04 in1.0 mm
09:53 AM 39.8°F4.3°C 43.3°F6.3°C 89% 1.9 mph NNW3.1 kmh NNW 2.0 mph3.2 kmh 29.98 in1015.2 mb 0.00 in0.0 mm 0.00 in0.0 mm 0.04 in1.0 mm
09:59 AM 39.8°F4.3°C 43.4°F6.3°C 88% 2.4 mph W3.9 kmh W 2.4 mph3.9 kmh 29.98 in1015.2 mb 0.00 in0.0 mm 0.00 in0.0 mm 0.04 in1.0 mm
10:02 AM 39.9°F4.4°C 43.4°F6.3°C 88% Calm Calm -- 29.98 in1015.2 mb 0.00 in0.0 mm 0.00 in0.0 mm 0.04 in1.0 mm
10:05 AM 39.9°F4.4°C 43.5°F6.4°C 89% 0.8 mph NNW1.3 kmh NNW 0.8 mph1.3 kmh 29.98 in1015.2 mb 0.00 in0.0 mm 0.00 in0.0 mm 0.04 in1.0 mm
10:08 AM 39.8°F4.3°C 43.5°F6.4°C 88% 5.0 mph NW8.0 kmh NW 5.1 mph8.2 kmh 29.98 in1015.2 mb 0.00 in0.0 mm 0.00 in0.0 mm 0.04 in1.0 mm
10:11 AM 39.8°F4.3°C 43.3°F6.3°C 88% 2.8 mph NNW4.5 kmh NNW 2.9 mph4.7 kmh 29.98 in1015.2 mb 0.00 in0.0 mm 0.00 in0.0 mm 0.04 in1.0 mm
10:14 AM 39.9°F4.4°C 43.5°F6.4°C 88% 4.4 mph W7.1 kmh W 4.5 mph7.2 kmh 29.98 in1015.2 mb 0.00 in0.0 mm 0.00 in0.0 mm 0.04 in1.0 mm
10:17 AM 39.9°F4.4°C 43.2°F6.2°C 88% 4.0 mph W6.4 kmh W 4.1 mph6.6 kmh 29.98 in1015.2 mb 0.00 in0.0 mm 0.00 in0.0 mm 0.04 in1.0 mm
10:20 AM 39.8°F4.3°C 43.2°F6.2°C 87% 4.8 mph W7.7 kmh W 4.9 mph7.9 kmh 29.98 in1015.2 mb 0.00 in0.0 mm 0.00 in0.0 mm 0.04 in1.0 mm
10:23 AM 39.8°F4.3°C 43.4°F6.3°C 88% 4.4 mph WSW7.1 kmh WSW 4.4 mph7.1 kmh 29.98 in1015.2 mb 0.00 in0.0 mm 0.00 in0.0 mm 0.04 in1.0 mm
10:26 AM 39.8°F4.3°C 43.3°F6.3°C 88% 2.8 mph NNW4.5 kmh NNW 2.8 mph4.5 kmh 29.98 in1015.2 mb 0.00 in0.0 mm 0.00 in0.0 mm 0.04 in1.0 mm
10:29 AM 39.9°F4.4°C 43.5°F6.4°C 88% 1.6 mph W2.6 kmh W 1.6 mph2.6 kmh 29.98 in1015.2 mb 0.00 in0.0 mm 0.00 in0.0 mm 0.04 in1.0 mm
10:32 AM 39.9°F4.4°C 43.4°F6.3°C 88% 2.4 mph WNW3.9 kmh WNW 2.4 mph3.9 kmh 29.98 in1015.2 mb 0.00 in0.0 mm 0.00 in0.0 mm 0.04 in1.0 mm
10:35 AM 39.9°F4.4°C 43.3°F6.3°C 88% 1.2 mph W1.9 kmh W 1.2 mph1.9 kmh 29.98 in1015.2 mb 0.00 in0.0 mm 0.00 in0.0 mm 0.04 in1.0 mm
10:38 AM 39.8°F4.3°C 43.3°F6.3°C 88% 0.8 mph W1.3 kmh W 0.8 mph1.3 kmh 29.98 in1015.2 mb 0.00 in0.0 mm 0.00 in0.0 mm 0.04 in1.0 mm
10:41 AM 39.8°F4.3°C 43.6°F6.4°C 88% 2.0 mph W3.2 kmh W 2.0 mph3.2 kmh 29.97 in1014.9 mb 0.00 in0.0 mm 0.00 in0.0 mm 0.04 in1.0 mm
10:44 AM 39.9°F4.4°C 43.2°F6.2°C 87% 0.8 mph W1.3 kmh W 0.8 mph1.3 kmh 29.97 in1014.9 mb 0.00 in0.0 mm 0.00 in0.0 mm 0.04 in1.0 mm
10:47 AM 39.8°F4.3°C 43.4°F6.3°C 88% 3.1 mph WSW5.0 kmh WSW 3.1 mph5.0 kmh 29.97 in1014.9 mb 0.00 in0.0 mm 0.00 in0.0 mm 0.04 in1.0 mm
10:50 AM 39.9°F4.4°C 43.3°F6.3°C 88% 2.0 mph W3.2 kmh W 2.0 mph3.2 kmh 29.97 in1014.9 mb 0.00 in0.0 mm 0.00 in0.0 mm 0.04 in1.0 mm
10:53 AM 39.8°F4.3°C 43.4°F6.3°C 88% 2.0 mph W3.2 kmh W 2.0 mph3.2 kmh 29.97 in1014.9 mb 0.00 in0.0 mm 0.00 in0.0 mm 0.04 in1.0 mm
10:56 AM 39.9°F4.4°C 43.6°F6.4°C 89% Calm Calm -- 29.96 in1014.6 mb 0.00 in0.0 mm 0.00 in0.0 mm 0.04 in1.0 mm
10:59 AM 40.0°F4.4°C 43.2°F6.2°C 88% 4.0 mph W6.4 kmh W 4.1 mph6.6 kmh 29.96 in1014.6 mb 0.00 in0.0 mm 0.00 in0.0 mm 0.04 in1.0 mm
11:02 AM 39.9°F4.4°C 43.5°F6.4°C 88% 4.2 mph W6.8 kmh W 4.3 mph6.9 kmh 29.96 in1014.6 mb 0.00 in0.0 mm 0.00 in0.0 mm 0.04 in1.0 mm
11:05 AM 39.9°F4.4°C 43.4°F6.3°C 88% Calm Calm -- 29.96 in1014.6 mb 0.00 in0.0 mm 0.00 in0.0 mm 0.04 in1.0 mm
11:08 AM 39.9°F4.4°C 43.3°F6.3°C 88% 3.2 mph W5.1 kmh W 3.3 mph5.3 kmh 29.96 in1014.6 mb 0.00 in0.0 mm 0.00 in0.0 mm 0.04 in1.0 mm
11:11 AM 39.8°F4.3°C 43.4°F6.3°C 88% 2.8 mph W4.5 kmh W 2.8 mph4.5 kmh 29.96 in1014.6 mb 0.00 in0.0 mm 0.00 in0.0 mm 0.04 in1.0 mm
11:12 AM 39.8°F4.3°C 43.3°F6.3°C 88% 6.1 mph W9.8 kmh W 6.1 mph9.8 kmh 29.96 in1014.6 mb 0.00 in0.0 mm 0.00 in0.0 mm 0.04 in1.0 mm
11:15 AM 39.8°F4.3°C 43.4°F6.3°C 88% 3.2 mph WSW5.1 kmh WSW 3.3 mph5.3 kmh 29.96 in1014.6 mb 0.00 in0.0 mm 0.00 in0.0 mm 0.04 in1.0 mm
11:18 AM 39.8°F4.3°C 43.5°F6.4°C 88% 4.0 mph NNW6.4 kmh NNW 4.1 mph6.6 kmh 29.96 in1014.6 mb 0.00 in0.0 mm 0.00 in0.0 mm 0.04 in1.0 mm
11:21 AM 39.7°F4.3°C 43.5°F6.4°C 89% 1.6 mph W2.6 kmh W 1.6 mph2.6 kmh 29.95 in1014.2 mb 0.00 in0.0 mm 0.00 in0.0 mm 0.04 in1.0 mm
11:24 AM 39.8°F4.3°C 43.4°F6.3°C 88% 6.0 mph NNW9.7 kmh NNW 6.0 mph9.7 kmh 29.95 in1014.2 mb 0.00 in0.0 mm 0.00 in0.0 mm 0.06 in1.5 mm
11:27 AM 39.8°F4.3°C 43.2°F6.2°C 89% Calm Calm -- 29.94 in1013.9 mb 0.00 in0.0 mm 0.00 in0.0 mm 0.06 in1.5 mm
11:30 AM 39.8°F4.3°C 43.6°F6.4°C 89% 2.8 mph WSW4.5 kmh WSW 2.9 mph4.7 kmh 29.94 in1013.9 mb 0.00 in0.0 mm 0.00 in0.0 mm 0.06 in1.5 mm
11:33 AM 39.8°F4.3°C 43.6°F6.4°C 89% 4.0 mph WSW6.4 kmh WSW 4.1 mph6.6 kmh 29.94 in1013.9 mb 0.00 in0.0 mm 0.00 in0.0 mm 0.06 in1.5 mm
11:36 AM 39.8°F4.3°C 43.4°F6.3°C 89% 4.0 mph WSW6.4 kmh WSW 4.1 mph6.6 kmh 29.94 in1013.9 mb 0.00 in0.0 mm 0.00 in0.0 mm 0.06 in1.5 mm
11:41 AM 39.8°F4.3°C 43.6°F6.4°C 89% 0.8 mph WNW1.3 kmh WNW 0.8 mph1.3 kmh 29.93 in1013.5 mb 0.00 in0.0 mm 0.00 in0.0 mm 0.06 in1.5 mm
11:44 AM 39.9°F4.4°C 43.4°F6.3°C 88% 2.4 mph NNW3.9 kmh NNW 2.4 mph3.9 kmh 29.93 in1013.5 mb 0.00 in0.0 mm 0.00 in0.0 mm 0.06 in1.5 mm
11:47 AM 39.8°F4.3°C 43.1°F6.2°C 88% 1.2 mph SW1.9 kmh SW 1.2 mph1.9 kmh 29.93 in1013.5 mb 0.00 in0.0 mm 0.00 in0.0 mm 0.06 in1.5 mm
11:50 AM 39.8°F4.3°C 43.4°F6.3°C 89% 2.0 mph W3.2 kmh W 2.0 mph3.2 kmh 29.93 in1013.5 mb 0.00 in0.0 mm 0.00 in0.0 mm 0.06 in1.5 mm
11:53 AM 39.8°F4.3°C 43.4°F6.3°C 89% 2.0 mph WSW3.2 kmh WSW 2.0 mph3.2 kmh 29.93 in1013.5 mb 0.00 in0.0 mm 0.00 in0.0 mm 0.06 in1.5 mm
11:56 AM 39.8°F4.3°C 43.7°F6.5°C 89% 3.2 mph W5.1 kmh W 3.3 mph5.3 kmh 29.93 in1013.5 mb 0.00 in0.0 mm 0.00 in0.0 mm 0.06 in1.5 mm
11:59 AM 39.9°F4.4°C 43.5°F6.4°C 89% 4.4 mph W7.1 kmh W 4.5 mph7.2 kmh 29.93 in1013.5 mb 0.00 in0.0 mm 0.00 in0.0 mm 0.06 in1.5 mm
12:02 PM 39.9°F4.4°C 43.4°F6.3°C 89% 2.0 mph SW3.2 kmh SW 2.0 mph3.2 kmh 29.92 in1013.2 mb 0.00 in0.0 mm 0.00 in0.0 mm 0.06 in1.5 mm
12:05 PM 39.9°F4.4°C 43.4°F6.3°C 89% 3.2 mph W5.1 kmh W 3.3 mph5.3 kmh 29.93 in1013.5 mb 0.00 in0.0 mm 0.00 in0.0 mm 0.06 in1.5 mm
12:08 PM 39.8°F4.3°C 43.6°F6.4°C 89% 3.2 mph W5.1 kmh W 3.3 mph5.3 kmh 29.93 in1013.5 mb 0.00 in0.0 mm 0.00 in0.0 mm 0.06 in1.5 mm
12:11 PM 39.8°F4.3°C 43.4°F6.3°C 89% 1.2 mph SW1.9 kmh SW 1.2 mph1.9 kmh 29.93 in1013.5 mb 0.00 in0.0 mm 0.00 in0.0 mm 0.06 in1.5 mm
12:14 PM 39.9°F4.4°C 43.4°F6.3°C 89% Calm Calm -- 29.92 in1013.2 mb 0.00 in0.0 mm 0.00 in0.0 mm 0.06 in1.5 mm
12:17 PM 39.8°F4.3°C 43.5°F6.4°C 89% 2.4 mph WSW3.9 kmh WSW 2.4 mph3.9 kmh 29.91 in1012.9 mb 0.00 in0.0 mm 0.00 in0.0 mm 0.06 in1.5 mm
12:20 PM 39.8°F4.3°C 43.5°F6.4°C 89% 0.8 mph WSW1.3 kmh WSW 0.8 mph1.3 kmh 29.91 in1012.9 mb 0.00 in0.0 mm 0.00 in0.0 mm 0.06 in1.5 mm
12:23 PM 39.8°F4.3°C 43.4°F6.3°C 89% 4.0 mph SW6.4 kmh SW 4.1 mph6.6 kmh 29.91 in1012.9 mb 0.00 in0.0 mm 0.00 in0.0 mm 0.06 in1.5 mm
12:26 PM 39.8°F4.3°C 43.5°F6.4°C 89% 3.2 mph WNW5.1 kmh WNW 3.3 mph5.3 kmh 29.91 in1012.9 mb 0.00 in0.0 mm 0.00 in0.0 mm 0.08 in2.0 mm
12:29 PM 39.8°F4.3°C 43.5°F6.4°C 89% Calm Calm -- 29.91 in1012.9 mb 0.00 in0.0 mm 0.00 in0.0 mm 0.08 in2.0 mm
12:32 PM 39.8°F4.3°C 43.6°F6.4°C 89% Calm Calm -- 29.91 in1012.9 mb 0.00 in0.0 mm 0.00 in0.0 mm 0.08 in2.0 mm
12:35 PM 39.9°F4.4°C 43.5°F6.4°C 89% 2.0 mph SW3.2 kmh SW 2.0 mph3.2 kmh 29.91 in1012.9 mb 0.00 in0.0 mm 0.00 in0.0 mm 0.08 in2.0 mm
12:38 PM 39.8°F4.3°C 43.6°F6.4°C 89% 0.4 mph WSW0.6 kmh WSW 0.4 mph0.6 kmh 29.91 in1012.9 mb 0.00 in0.0 mm 0.00 in0.0 mm 0.08 in2.0 mm
12:41 PM 39.8°F4.3°C 43.3°F6.3°C 89% 3.2 mph WSW5.1 kmh WSW 3.2 mph5.1 kmh 29.91 in1012.9 mb 0.00 in0.0 mm 0.00 in0.0 mm 0.08 in2.0 mm
12:44 PM 39.8°F4.3°C 43.4°F6.3°C 89% 1.2 mph W1.9 kmh W 1.2 mph1.9 kmh 29.91 in1012.9 mb 0.00 in0.0 mm 0.00 in0.0 mm 0.08 in2.0 mm
12:47 PM 39.7°F4.3°C 43.5°F6.4°C 89% 4.8 mph WSW7.7 kmh WSW 4.9 mph7.9 kmh 29.91 in1012.9 mb 0.00 in0.0 mm 0.00 in0.0 mm 0.08 in2.0 mm
12:50 PM 39.8°F4.3°C 43.3°F6.3°C 89% 1.2 mph NNW1.9 kmh NNW 1.2 mph1.9 kmh 29.91 in1012.9 mb 0.00 in0.0 mm 0.00 in0.0 mm 0.08 in2.0 mm
12:53 PM 39.9°F4.4°C 43.6°F6.4°C 89% 1.6 mph W2.6 kmh W 1.6 mph2.6 kmh 29.90 in1012.5 mb 0.00 in0.0 mm 0.00 in0.0 mm 0.10 in2.5 mm
12:56 PM 39.8°F4.3°C 43.5°F6.4°C 89% 5.6 mph NNW9.0 kmh NNW 5.6 mph9.0 kmh 29.90 in1012.5 mb 0.00 in0.0 mm 0.00 in0.0 mm 0.10 in2.5 mm
01:02 PM 39.9°F4.4°C 43.6°F6.4°C 89% 2.4 mph WNW3.9 kmh WNW 2.4 mph3.9 kmh 29.90 in1012.5 mb 0.00 in0.0 mm 0.00 in0.0 mm 0.10 in2.5 mm
01:05 PM 39.8°F4.3°C 43.4°F6.3°C 89% 3.6 mph WNW5.8 kmh WNW 3.7 mph6.0 kmh 29.89 in1012.2 mb 0.00 in0.0 mm 0.00 in0.0 mm 0.10 in2.5 mm
01:11 PM 39.7°F4.3°C 43.3°F6.3°C 89% 3.6 mph W5.8 kmh W 3.7 mph6.0 kmh 29.89 in1012.2 mb 0.00 in0.0 mm 0.00 in0.0 mm 0.10 in2.5 mm
01:14 PM 39.8°F4.3°C 43.5°F6.4°C 89% 1.6 mph NW2.6 kmh NW 1.6 mph2.6 kmh 29.89 in1012.2 mb 0.00 in0.0 mm 0.00 in0.0 mm 0.10 in2.5 mm
01:17 PM 39.8°F4.3°C 43.5°F6.4°C 89% 2.0 mph NNW3.2 kmh NNW 2.0 mph3.2 kmh 29.89 in1012.2 mb 0.00 in0.0 mm 0.00 in0.0 mm 0.10 in2.5 mm
01:20 PM 39.8°F4.3°C 43.6°F6.4°C 89% 3.2 mph WNW5.1 kmh WNW 3.2 mph5.1 kmh 29.89 in1012.2 mb 0.00 in0.0 mm 0.00 in0.0 mm 0.10 in2.5 mm
01:26 PM 39.8°F4.3°C 43.1°F6.2°C 88% 1.2 mph WSW1.9 kmh WSW 1.2 mph1.9 kmh 29.89 in1012.2 mb 0.00 in0.0 mm 0.00 in0.0 mm 0.10 in2.5 mm
01:29 PM 39.9°F4.4°C 43.3°F6.3°C 88% 1.2 mph NNW1.9 kmh NNW 1.2 mph1.9 kmh 29.89 in1012.2 mb 0.00 in0.0 mm 0.00 in0.0 mm 0.10 in2.5 mm
01:32 PM 39.9°F4.4°C 43.3°F6.3°C 89% 0.4 mph WSW0.6 kmh WSW 0.4 mph0.6 kmh 29.88 in1011.9 mb 0.00 in0.0 mm 0.00 in0.0 mm 0.10 in2.5 mm
01:35 PM 39.9°F4.4°C 43.5°F6.4°C 89% 1.6 mph W2.6 kmh W 1.6 mph2.6 kmh 29.88 in1011.9 mb 0.00 in0.0 mm 0.00 in0.0 mm 0.10 in2.5 mm
01:38 PM 39.9°F4.4°C 43.5°F6.4°C 89% 5.3 mph W8.5 kmh W 5.3 mph8.5 kmh 29.88 in1011.9 mb 0.00 in0.0 mm 0.00 in0.0 mm 0.10 in2.5 mm
01:41 PM 39.9°F4.4°C 43.5°F6.4°C 89% 3.6 mph WSW5.8 kmh WSW 3.6 mph5.8 kmh 29.87 in1011.5 mb 0.00 in0.0 mm 0.00 in0.0 mm 0.10 in2.5 mm
01:44 PM 39.9°F4.4°C 43.6°F6.4°C 89% 2.0 mph W3.2 kmh W 2.0 mph3.2 kmh 29.87 in1011.5 mb 0.00 in0.0 mm 0.00 in0.0 mm 0.10 in2.5 mm
01:47 PM 39.9°F4.4°C 43.4°F6.3°C 89% 0.8 mph W1.3 kmh W 0.8 mph1.3 kmh 29.87 in1011.5 mb 0.00 in0.0 mm 0.00 in0.0 mm 0.10 in2.5 mm
01:50 PM 39.8°F4.3°C 43.5°F6.4°C 89% 7.3 mph WSW11.7 kmh WSW 7.3 mph11.7 kmh 29.87 in1011.5 mb 0.00 in0.0 mm 0.00 in0.0 mm 0.10 in2.5 mm
01:53 PM 39.9°F4.4°C 43.5°F6.4°C 89% 0.8 mph WSW1.3 kmh WSW 0.8 mph1.3 kmh 29.87 in1011.5 mb 0.00 in0.0 mm 0.00 in0.0 mm 0.10 in2.5 mm
01:56 PM 39.9°F4.4°C 43.6°F6.4°C 89% 4.4 mph SSW7.1 kmh SSW 4.5 mph7.2 kmh 29.87 in1011.5 mb 0.00 in0.0 mm 0.00 in0.0 mm 0.10 in2.5 mm
01:59 PM 39.9°F4.4°C 43.2°F6.2°C 88% 5.2 mph W8.4 kmh W 5.3 mph8.5 kmh 29.87 in1011.5 mb 0.00 in0.0 mm 0.00 in0.0 mm 0.10 in2.5 mm
02:02 PM 39.9°F4.4°C 43.8°F6.6°C 90% 1.2 mph SW1.9 kmh SW 1.2 mph1.9 kmh 29.86 in1011.2 mb 0.00 in0.0 mm 0.00 in0.0 mm 0.10 in2.5 mm
02:05 PM 39.9°F4.4°C 43.5°F6.4°C 89% 4.9 mph NNW7.9 kmh NNW 4.9 mph7.9 kmh 29.86 in1011.2 mb 0.00 in0.0 mm 0.00 in0.0 mm 0.10 in2.5 mm
02:08 PM 39.9°F4.4°C 43.5°F6.4°C 89% 4.0 mph NW6.4 kmh NW 4.1 mph6.6 kmh 29.86 in1011.2 mb 0.00 in0.0 mm 0.00 in0.0 mm 0.10 in2.5 mm
02:14 PM 40.0°F4.4°C 43.6°F6.4°C 89% 3.2 mph W5.1 kmh W 3.3 mph5.3 kmh 29.86 in1011.2 mb 0.00 in0.0 mm 0.00 in0.0 mm 0.10 in2.5 mm
02:17 PM 40.0°F4.4°C 43.6°F6.4°C 89% 3.2 mph WNW5.1 kmh WNW 3.3 mph5.3 kmh 29.86 in1011.2 mb 0.00 in0.0 mm 0.00 in0.0 mm 0.10 in2.5 mm
02:20 PM 40.0°F4.4°C 43.5°F6.4°C 89% 4.4 mph NNW7.1 kmh NNW 4.4 mph7.1 kmh 29.86 in1011.2 mb 0.00 in0.0 mm 0.00 in0.0 mm 0.10 in2.5 mm
02:23 PM 40.1°F4.5°C 43.6°F6.4°C 90% 2.8 mph WNW4.5 kmh WNW 2.9 mph4.7 kmh 29.86 in1011.2 mb 0.00 in0.0 mm 0.00 in0.0 mm 0.10 in2.5 mm
02:26 PM 40.1°F4.5°C 43.8°F6.6°C 90% 7.7 mph NNW12.4 kmh NNW 7.7 mph12.4 kmh 29.85 in1010.8 mb 0.00 in0.0 mm 0.00 in0.0 mm 0.10 in2.5 mm
02:29 PM 40.1°F4.5°C 43.4°F6.3°C 89% 2.8 mph WNW4.5 kmh WNW 2.9 mph4.7 kmh 29.85 in1010.8 mb 0.00 in0.0 mm 0.00 in0.0 mm 0.12 in3.0 mm
02:32 PM 40.1°F4.5°C 43.6°F6.4°C 90% 1.6 mph W2.6 kmh W 1.6 mph2.6 kmh 29.84 in1010.5 mb 0.00 in0.0 mm 0.00 in0.0 mm 0.12 in3.0 mm
02:35 PM 40.1°F4.5°C 43.7°F6.5°C 90% 1.2 mph W1.9 kmh W 1.2 mph1.9 kmh 29.84 in1010.5 mb 0.00 in0.0 mm 0.00 in0.0 mm 0.12 in3.0 mm
02:38 PM 40.0°F4.4°C 43.7°F6.5°C 90% 2.8 mph WNW4.5 kmh WNW 2.9 mph4.7 kmh 29.84 in1010.5 mb 0.00 in0.0 mm 0.00 in0.0 mm 0.12 in3.0 mm
02:41 PM 40.1°F4.5°C 43.6°F6.4°C 90% 0.4 mph W0.6 kmh W 0.4 mph0.6 kmh 29.84 in1010.5 mb 0.00 in0.0 mm 0.00 in0.0 mm 0.12 in3.0 mm
02:44 PM 40.1°F4.5°C 43.7°F6.5°C 90% 5.2 mph NW8.4 kmh NW 5.2 mph8.4 kmh 29.84 in1010.5 mb 0.00 in0.0 mm 0.00 in0.0 mm 0.12 in3.0 mm
02:47 PM 40.2°F4.6°C 43.7°F6.5°C 90% 7.3 mph WSW11.7 kmh WSW 7.3 mph11.7 kmh 29.84 in1010.5 mb 0.00 in0.0 mm 0.00 in0.0 mm 0.14 in3.6 mm
02:50 PM 40.2°F4.6°C 43.5°F6.4°C 90% 4.0 mph WSW6.4 kmh WSW 4.1 mph6.6 kmh 29.84 in1010.5 mb 0.00 in0.0 mm 0.00 in0.0 mm 0.14 in3.6 mm
02:53 PM 40.2°F4.6°C 43.8°F6.6°C 90% 1.6 mph W2.6 kmh W 1.6 mph2.6 kmh 29.84 in1010.5 mb 0.00 in0.0 mm 0.00 in0.0 mm 0.14 in3.6 mm
02:59 PM 40.2°F4.6°C 43.7°F6.5°C 89% 5.2 mph NW8.4 kmh NW 5.3 mph8.5 kmh 29.84 in1010.5 mb 0.00 in0.0 mm 0.00 in0.0 mm 0.14 in3.6 mm
03:02 PM 40.2°F4.6°C 43.9°F6.6°C 90% 3.2 mph W5.1 kmh W 3.2 mph5.1 kmh 29.84 in1010.5 mb 0.00 in0.0 mm 0.00 in0.0 mm 0.14 in3.6 mm
03:05 PM 40.1°F4.5°C 43.9°F6.6°C 90% 2.0 mph W3.2 kmh W 2.0 mph3.2 kmh 29.84 in1010.5 mb 0.00 in0.0 mm 0.00 in0.0 mm 0.14 in3.6 mm
03:08 PM 40.2°F4.6°C 43.8°F6.6°C 90% 8.0 mph SW12.9 kmh SW 8.0 mph12.9 kmh 29.84 in1010.5 mb 0.00 in0.0 mm 0.00 in0.0 mm 0.14 in3.6 mm
03:11 PM 40.1°F4.5°C 43.9°F6.6°C 90% 4.8 mph NNW7.7 kmh NNW 4.8 mph7.7 kmh 29.84 in1010.5 mb 0.00 in0.0 mm 0.00 in0.0 mm 0.16 in4.1 mm
03:14 PM 40.2°F4.6°C 43.3°F6.3°C 89% 1.6 mph WNW2.6 kmh WNW 1.6 mph2.6 kmh 29.84 in1010.5 mb 0.00 in0.0 mm 0.00 in0.0 mm 0.16 in4.1 mm
03:17 PM 40.2°F4.6°C 43.9°F6.6°C 89% 4.0 mph SW6.4 kmh SW 4.1 mph6.6 kmh 29.84 in1010.5 mb 0.00 in0.0 mm 0.00 in0.0 mm 0.16 in4.1 mm
03:20 PM 40.2°F4.6°C 43.9°F6.6°C 90% 3.2 mph WSW5.1 kmh WSW 3.3 mph5.3 kmh 29.84 in1010.5 mb 0.00 in0.0 mm 0.00 in0.0 mm 0.16 in4.1 mm
03:23 PM 40.2°F4.6°C 43.9°F6.6°C 90% 5.3 mph WNW8.5 kmh WNW 5.3 mph8.5 kmh 29.84 in1010.5 mb 0.00 in0.0 mm 0.00 in0.0 mm 0.16 in4.1 mm
03:26 PM 40.2°F4.6°C 43.9°F6.6°C 90% 2.8 mph NW4.5 kmh NW 2.9 mph4.7 kmh 29.83 in1010.2 mb 0.00 in0.0 mm 0.00 in0.0 mm 0.16 in4.1 mm
03:29 PM 40.2°F4.6°C 43.9°F6.6°C 90% 6.5 mph W10.5 kmh W 6.5 mph10.5 kmh 29.83 in1010.2 mb 0.00 in0.0 mm 0.00 in0.0 mm 0.16 in4.1 mm
03:32 PM 40.2°F4.6°C 44.1°F6.7°C 90% 6.0 mph W9.7 kmh W 6.1 mph9.8 kmh 29.83 in1010.2 mb 0.00 in0.0 mm 0.00 in0.0 mm 0.16 in4.1 mm
03:35 PM 40.2°F4.6°C 44.0°F6.7°C 90% 3.2 mph W5.1 kmh W 3.3 mph5.3 kmh 29.83 in1010.2 mb 0.00 in0.0 mm 0.00 in0.0 mm 0.16 in4.1 mm
03:38 PM 40.2°F4.6°C 43.9°F6.6°C 90% 12.7 mph NNW20.4 kmh NNW 12.7 mph20.4 kmh 29.82 in1009.8 mb 0.00 in0.0 mm 0.00 in0.0 mm 0.16 in4.1 mm
03:41 PM 40.2°F4.6°C 43.5°F6.4°C 89% 5.5 mph W8.9 kmh W 5.6 mph9.0 kmh 29.83 in1010.2 mb 0.00 in0.0 mm 0.00 in0.0 mm 0.18 in4.6 mm
03:44 PM 40.2°F4.6°C 44.0°F6.7°C 90% 3.2 mph NNW5.1 kmh NNW 3.3 mph5.3 kmh 29.83 in1010.2 mb 0.00 in0.0 mm 0.00 in0.0 mm 0.18 in4.6 mm
03:47 PM 40.2°F4.6°C 44.0°F6.7°C 90% 5.2 mph W8.4 kmh W 5.2 mph8.4 kmh 29.82 in1009.8 mb 0.00 in0.0 mm 0.00 in0.0 mm 0.18 in4.6 mm
03:50 PM 40.3°F4.6°C 44.2°F6.8°C 91% 6.4 mph WSW10.3 kmh WSW 6.4 mph10.3 kmh 29.82 in1009.8 mb 0.00 in0.0 mm 0.00 in0.0 mm 0.18 in4.6 mm
03:56 PM 40.2°F4.6°C 44.1°F6.7°C 90% 2.0 mph WNW3.2 kmh WNW 2.0 mph3.2 kmh 29.83 in1010.2 mb 0.00 in0.0 mm 0.00 in0.0 mm 0.18 in4.6 mm
03:59 PM 40.3°F4.6°C 44.3°F6.8°C 90% 2.8 mph W4.5 kmh W 2.8 mph4.5 kmh 29.82 in1009.8 mb 0.00 in0.0 mm 0.00 in0.0 mm 0.18 in4.6 mm
04:02 PM 40.3°F4.6°C 44.3°F6.8°C 90% 6.9 mph NNW11.1 kmh NNW 6.9 mph11.1 kmh 29.82 in1009.8 mb 0.00 in0.0 mm 0.00 in0.0 mm 0.18 in4.6 mm
04:05 PM 40.2°F4.6°C 44.2°F6.8°C 91% 6.7 mph NW10.8 kmh NW 6.8 mph10.9 kmh 29.82 in1009.8 mb 0.00 in0.0 mm 0.00 in0.0 mm 0.18 in4.6 mm
04:08 PM 40.3°F4.6°C 44.1°F6.7°C 90% 5.3 mph NNW8.5 kmh NNW 5.3 mph8.5 kmh 29.83 in1010.2 mb 0.00 in0.0 mm 0.00 in0.0 mm 0.18 in4.6 mm
04:11 PM 40.3°F4.6°C 44.0°F6.7°C 90% 6.9 mph W11.1 kmh W 6.9 mph11.1 kmh 29.83 in1010.2 mb 0.00 in0.0 mm 0.00 in0.0 mm 0.20 in5.1 mm
04:14 PM 40.3°F4.6°C 44.1°F6.7°C 90% 6.9 mph WSW11.1 kmh WSW 6.9 mph11.1 kmh 29.82 in1009.8 mb 0.00 in0.0 mm 0.00 in0.0 mm 0.20 in5.1 mm
04:17 PM 40.3°F4.6°C 44.1°F6.7°C 90% 2.8 mph NW4.5 kmh NW 2.8 mph4.5 kmh 29.83 in1010.2 mb 0.00 in0.0 mm 0.00 in0.0 mm 0.20 in5.1 mm
04:20 PM 40.3°F4.6°C 44.3°F6.8°C 90% 3.2 mph WNW5.1 kmh WNW 3.3 mph5.3 kmh 29.83 in1010.2 mb 0.00 in0.0 mm 0.00 in0.0 mm 0.20 in5.1 mm
04:23 PM 40.3°F4.6°C 43.9°F6.6°C 89% 4.4 mph WNW7.1 kmh WNW 4.4 mph7.1 kmh 29.82 in1009.8 mb 0.00 in0.0 mm 0.00 in0.0 mm 0.20 in5.1 mm
04:26 PM 40.2°F4.6°C 43.7°F6.5°C 90% 4.0 mph NNW6.4 kmh NNW 4.1 mph6.6 kmh 29.83 in1010.2 mb 0.00 in0.0 mm 0.00 in0.0 mm 0.20 in5.1 mm
04:29 PM 40.2°F4.6°C 44.1°F6.7°C 90% 7.7 mph NW12.4 kmh NW 7.7 mph12.4 kmh 29.83 in1010.2 mb 0.00 in0.0 mm 0.00 in0.0 mm 0.20 in5.1 mm
04:32 PM 40.3°F4.6°C 44.5°F6.9°C 91% 1.6 mph NW2.6 kmh NW 1.6 mph2.6 kmh 29.83 in1010.2 mb 0.00 in0.0 mm 0.00 in0.0 mm 0.20 in5.1 mm
04:35 PM 40.2°F4.6°C 44.4°F6.9°C 91% 3.6 mph NNW5.8 kmh NNW 3.7 mph6.0 kmh 29.82 in1009.8 mb 0.00 in0.0 mm 0.00 in0.0 mm 0.20 in5.1 mm
04:38 PM 40.2°F4.6°C 44.2°F6.8°C 90% 2.8 mph WNW4.5 kmh WNW 2.9 mph4.7 kmh 29.81 in1009.5 mb 0.00 in0.0 mm 0.00 in0.0 mm 0.20 in5.1 mm
04:44 PM 40.2°F4.6°C 44.5°F6.9°C 91% 2.8 mph W4.5 kmh W 2.8 mph4.5 kmh 29.81 in1009.5 mb 0.00 in0.0 mm 0.00 in0.0 mm 0.20 in5.1 mm
04:47 PM 40.2°F4.6°C 44.1°F6.7°C 89% 5.7 mph NW9.2 kmh NW 5.7 mph9.2 kmh 29.82 in1009.8 mb 0.00 in0.0 mm 0.00 in0.0 mm 0.20 in5.1 mm
04:50 PM 40.2°F4.6°C 44.1°F6.7°C 90% 2.8 mph W4.5 kmh W 2.8 mph4.5 kmh 29.81 in1009.5 mb 0.00 in0.0 mm 0.00 in0.0 mm 0.20 in5.1 mm
04:53 PM 40.2°F4.6°C 44.3°F6.8°C 91% 2.4 mph W3.9 kmh W 2.4 mph3.9 kmh 29.81 in1009.5 mb 0.00 in0.0 mm 0.00 in0.0 mm 0.20 in5.1 mm
04:56 PM 40.2°F4.6°C 44.3°F6.8°C 91% 2.8 mph SW4.5 kmh SW 2.8 mph4.5 kmh 29.81 in1009.5 mb 0.00 in0.0 mm 0.00 in0.0 mm 0.20 in5.1 mm
04:59 PM 40.3°F4.6°C 44.3°F6.8°C 91% 2.0 mph W3.2 kmh W 2.0 mph3.2 kmh 29.81 in1009.5 mb 0.00 in0.0 mm 0.00 in0.0 mm 0.20 in5.1 mm
05:02 PM 40.3°F4.6°C 44.4°F6.9°C 90% 4.4 mph WSW7.1 kmh WSW 4.5 mph7.2 kmh 29.81 in1009.5 mb 0.00 in0.0 mm 0.00 in0.0 mm 0.20 in5.1 mm
05:05 PM 40.3°F4.6°C 44.2°F6.8°C 90% 2.8 mph WNW4.5 kmh WNW 2.9 mph4.7 kmh 29.81 in1009.5 mb 0.00 in0.0 mm 0.00 in0.0 mm 0.20 in5.1 mm
05:08 PM 40.4°F4.7°C 44.4°F6.9°C 91% 2.8 mph NNW4.5 kmh NNW 2.8 mph4.5 kmh 29.81 in1009.5 mb 0.00 in0.0 mm 0.00 in0.0 mm 0.20 in5.1 mm
05:11 PM 40.4°F4.7°C 44.3°F6.8°C 91% 2.0 mph WSW3.2 kmh WSW 2.0 mph3.2 kmh 29.81 in1009.5 mb 0.00 in0.0 mm 0.00 in0.0 mm 0.20 in5.1 mm
05:14 PM 40.4°F4.7°C 44.3°F6.8°C 91% 6.5 mph W10.5 kmh W 6.5 mph10.5 kmh 29.81 in1009.5 mb 0.00 in0.0 mm 0.00 in0.0 mm 0.20 in5.1 mm
05:17 PM 40.4°F4.7°C 44.3°F6.8°C 91% 6.5 mph W10.5 kmh W 6.5 mph10.5 kmh 29.81 in1009.5 mb 0.00 in0.0 mm 0.00 in0.0 mm 0.20 in5.1 mm
05:20 PM 40.3°F4.6°C 44.2°F6.8°C 91% 7.3 mph W11.7 kmh W 7.3 mph11.7 kmh 29.81 in1009.5 mb 0.00 in0.0 mm 0.00 in0.0 mm 0.20 in5.1 mm
05:23 PM 40.3°F4.6°C 44.1°F6.7°C 89% 1.6 mph WNW2.6 kmh WNW 1.6 mph2.6 kmh 29.81 in1009.5 mb 0.00 in0.0 mm 0.00 in0.0 mm 0.20 in5.1 mm
05:26 PM 40.3°F4.6°C 44.4°F6.9°C 91% 2.0 mph W3.2 kmh W 2.0 mph3.2 kmh 29.81 in1009.5 mb 0.00 in0.0 mm 0.00 in0.0 mm 0.20 in5.1 mm
05:29 PM 40.4°F4.7°C 44.4°F6.9°C 91% 4.4 mph SSW7.1 kmh SSW 4.5 mph7.2 kmh 29.81 in1009.5 mb 0.00 in0.0 mm 0.00 in0.0 mm 0.20 in5.1 mm
05:32 PM 40.4°F4.7°C 44.6°F7.0°C 91% 5.2 mph W8.4 kmh W 5.2 mph8.4 kmh 29.81 in1009.5 mb 0.00 in0.0 mm 0.00 in0.0 mm 0.20 in5.1 mm
05:35 PM 40.4°F4.7°C 44.7°F7.1°C 91% 6.8 mph WNW10.9 kmh WNW 6.9 mph11.1 kmh 29.81 in1009.5 mb 0.00 in0.0 mm 0.00 in0.0 mm 0.22 in5.6 mm
05:38 PM 40.4°F4.7°C 44.4°F6.9°C 91% 2.8 mph NW4.5 kmh NW 2.9 mph4.7 kmh 29.81 in1009.5 mb 0.00 in0.0 mm 0.00 in0.0 mm 0.22 in5.6 mm
05:41 PM 40.4°F4.7°C 44.5°F6.9°C 91% 5.2 mph WNW8.4 kmh WNW 5.2 mph8.4 kmh 29.81 in1009.5 mb 0.00 in0.0 mm 0.00 in0.0 mm 0.22 in5.6 mm
05:44 PM 40.4°F4.7°C 44.4°F6.9°C 91% 2.4 mph WNW3.9 kmh WNW 2.4 mph3.9 kmh 29.81 in1009.5 mb 0.00 in0.0 mm 0.00 in0.0 mm 0.22 in5.6 mm
05:47 PM 40.4°F4.7°C 44.6°F7.0°C 91% 2.4 mph W3.9 kmh W 2.5 mph4.0 kmh 29.81 in1009.5 mb 0.00 in0.0 mm 0.00 in0.0 mm 0.22 in5.6 mm
05:50 PM 40.4°F4.7°C 44.6°F7.0°C 91% 4.7 mph NW7.6 kmh NW 4.8 mph7.7 kmh 29.81 in1009.5 mb 0.00 in0.0 mm 0.00 in0.0 mm 0.22 in5.6 mm
05:53 PM 40.6°F4.8°C 44.6°F7.0°C 91% 8.5 mph W13.7 kmh W 8.6 mph13.8 kmh 29.81 in1009.5 mb 0.00 in0.0 mm 0.00 in0.0 mm 0.22 in5.6 mm
05:56 PM 40.6°F4.8°C 44.6°F7.0°C 92% 2.8 mph W4.5 kmh W 2.8 mph4.5 kmh 29.81 in1009.5 mb 0.00 in0.0 mm 0.00 in0.0 mm 0.22 in5.6 mm
05:59 PM 40.6°F4.8°C 44.1°F6.7°C 90% 4.0 mph WNW6.4 kmh WNW 4.0 mph6.4 kmh 29.81 in1009.5 mb 0.00 in0.0 mm 0.00 in0.0 mm 0.22 in5.6 mm
06:02 PM 40.6°F4.8°C 44.4°F6.9°C 91% 5.6 mph WSW9.0 kmh WSW 5.6 mph9.0 kmh 29.81 in1009.5 mb 0.00 in0.0 mm 0.00 in0.0 mm 0.22 in5.6 mm
06:05 PM 40.7°F4.8°C 44.7°F7.1°C 91% 8.5 mph NNW13.7 kmh NNW 8.5 mph13.7 kmh 29.81 in1009.5 mb 0.00 in0.0 mm 0.00 in0.0 mm 0.22 in5.6 mm
06:08 PM 40.6°F4.8°C 44.4°F6.9°C 91% 3.6 mph NNW5.8 kmh NNW 3.7 mph6.0 kmh 29.81 in1009.5 mb 0.00 in0.0 mm 0.00 in0.0 mm 0.22 in5.6 mm
06:14 PM 40.6°F4.8°C 44.6°F7.0°C 91% 2.0 mph NNW3.2 kmh NNW 2.0 mph3.2 kmh 29.80 in1009.1 mb 0.00 in0.0 mm 0.00 in0.0 mm 0.22 in5.6 mm
06:17 PM 40.6°F4.8°C 44.4°F6.9°C 90% 4.0 mph WNW6.4 kmh WNW 4.1 mph6.6 kmh 29.80 in1009.1 mb 0.00 in0.0 mm 0.00 in0.0 mm 0.22 in5.6 mm
06:20 PM 40.7°F4.8°C 44.8°F7.1°C 91% 4.5 mph W7.2 kmh W 4.5 mph7.2 kmh 29.80 in1009.1 mb 0.00 in0.0 mm 0.00 in0.0 mm 0.22 in5.6 mm
06:23 PM 40.7°F4.8°C 44.6°F7.0°C 91% 2.0 mph W3.2 kmh W 2.0 mph3.2 kmh 29.80 in1009.1 mb 0.00 in0.0 mm 0.00 in0.0 mm 0.22 in5.6 mm
06:26 PM 40.7°F4.8°C 44.9°F7.2°C 91% 4.4 mph NNW7.1 kmh NNW 4.5 mph7.2 kmh 29.80 in1009.1 mb 0.00 in0.0 mm 0.00 in0.0 mm 0.22 in5.6 mm
06:29 PM 40.7°F4.8°C 44.5°F6.9°C 90% 3.2 mph NNW5.1 kmh NNW 3.3 mph5.3 kmh 29.81 in1009.5 mb 0.00 in0.0 mm 0.00 in0.0 mm 0.22 in5.6 mm
06:32 PM 40.7°F4.8°C 44.8°F7.1°C 91% 5.2 mph WSW8.4 kmh WSW 5.2 mph8.4 kmh 29.81 in1009.5 mb 0.00 in0.0 mm 0.00 in0.0 mm 0.22 in5.6 mm
06:35 PM 40.8°F4.9°C 44.8°F7.1°C 91% 2.8 mph W4.5 kmh W 2.8 mph4.5 kmh 29.81 in1009.5 mb 0.00 in0.0 mm 0.00 in0.0 mm 0.22 in5.6 mm
06:38 PM 40.8°F4.9°C 44.8°F7.1°C 91% 6.1 mph NW9.8 kmh NW 6.1 mph9.8 kmh 29.81 in1009.5 mb 0.00 in0.0 mm 0.00 in0.0 mm 0.22 in5.6 mm
06:41 PM 40.8°F4.9°C 44.7°F7.1°C 91% 2.8 mph W4.5 kmh W 2.9 mph4.7 kmh 29.81 in1009.5 mb 0.00 in0.0 mm 0.00 in0.0 mm 0.22 in5.6 mm
06:47 PM 40.8°F4.9°C 44.8°F7.1°C 91% 2.4 mph NW3.9 kmh NW 2.4 mph3.9 kmh 29.81 in1009.5 mb 0.00 in0.0 mm 0.00 in0.0 mm 0.22 in5.6 mm
06:50 PM 40.8°F4.9°C 44.6°F7.0°C 91% 5.2 mph NW8.4 kmh NW 5.2 mph8.4 kmh 29.81 in1009.5 mb 0.00 in0.0 mm 0.00 in0.0 mm 0.22 in5.6 mm
06:53 PM 40.8°F4.9°C 44.8°F7.1°C 91% 4.4 mph NW7.1 kmh NW 4.4 mph7.1 kmh 29.81 in1009.5 mb 0.00 in0.0 mm 0.00 in0.0 mm 0.22 in5.6 mm
06:56 PM 40.8°F4.9°C 44.7°F7.1°C 91% 5.3 mph NNW8.5 kmh NNW 5.3 mph8.5 kmh 29.81 in1009.5 mb 0.00 in0.0 mm 0.00 in0.0 mm 0.22 in5.6 mm
06:59 PM 40.9°F4.9°C 44.9°F7.2°C 91% 2.8 mph NNW4.5 kmh NNW 2.8 mph4.5 kmh 29.81 in1009.5 mb 0.00 in0.0 mm 0.00 in0.0 mm 0.22 in5.6 mm
07:02 PM 40.8°F4.9°C 44.7°F7.1°C 91% 1.2 mph WNW1.9 kmh WNW 1.2 mph1.9 kmh 29.81 in1009.5 mb 0.00 in0.0 mm 0.00 in0.0 mm 0.22 in5.6 mm
07:05 PM 40.9°F4.9°C 45.0°F7.2°C 91% 2.0 mph WNW3.2 kmh WNW 2.0 mph3.2 kmh 29.81 in1009.5 mb 0.00 in0.0 mm 0.00 in0.0 mm 0.22 in5.6 mm
07:08 PM 40.9°F4.9°C 44.6°F7.0°C 91% 1.2 mph WNW1.9 kmh WNW 1.2 mph1.9 kmh 29.81 in1009.5 mb 0.00 in0.0 mm 0.00 in0.0 mm 0.22 in5.6 mm
07:11 PM 40.9°F4.9°C 44.7°F7.1°C 91% 1.2 mph NNW1.9 kmh NNW 1.2 mph1.9 kmh 29.81 in1009.5 mb 0.00 in0.0 mm 0.00 in0.0 mm 0.22 in5.6 mm
07:14 PM 40.9°F4.9°C 44.9°F7.2°C 91% 1.6 mph NNW2.6 kmh NNW 1.6 mph2.6 kmh 29.80 in1009.1 mb 0.00 in0.0 mm 0.00 in0.0 mm 0.22 in5.6 mm
07:17 PM 40.9°F4.9°C 44.9°F7.2°C 91% 4.0 mph WNW6.4 kmh WNW 4.0 mph6.4 kmh 29.81 in1009.5 mb 0.00 in0.0 mm 0.00 in0.0 mm 0.22 in5.6 mm
07:20 PM 41.0°F5.0°C 44.8°F7.1°C 91% 3.6 mph WNW5.8 kmh WNW 3.6 mph5.8 kmh 29.81 in1009.5 mb 0.00 in0.0 mm 0.00 in0.0 mm 0.22 in5.6 mm
07:23 PM 41.0°F5.0°C 45.0°F7.2°C 91% 2.0 mph W3.2 kmh W 2.0 mph3.2 kmh 29.81 in1009.5 mb 0.00 in0.0 mm 0.00 in0.0 mm 0.22 in5.6 mm
07:26 PM 41.0°F5.0°C 44.9°F7.2°C 91% 1.6 mph NNW2.6 kmh NNW 1.6 mph2.6 kmh 29.81 in1009.5 mb 0.00 in0.0 mm 0.00 in0.0 mm 0.22 in5.6 mm
07:29 PM 41.0°F5.0°C 44.8°F7.1°C 91% 2.0 mph NW3.2 kmh NW 2.0 mph3.2 kmh 29.81 in1009.5 mb 0.00 in0.0 mm 0.00 in0.0 mm 0.22 in5.6 mm
07:32 PM 41.0°F5.0°C 45.0°F7.2°C 91% 3.2 mph NW5.1 kmh NW 3.3 mph5.3 kmh 29.81 in1009.5 mb 0.00 in0.0 mm 0.00 in0.0 mm 0.22 in5.6 mm
07:35 PM 41.0°F5.0°C 44.8°F7.1°C 91% 2.4 mph NW3.9 kmh NW 2.4 mph3.9 kmh 29.81 in1009.5 mb 0.00 in0.0 mm 0.00 in0.0 mm 0.22 in5.6 mm
07:38 PM 41.1°F5.1°C 45.0°F7.2°C 91% 2.4 mph WNW3.9 kmh WNW 2.4 mph3.9 kmh 29.81 in1009.5 mb 0.00 in0.0 mm 0.00 in0.0 mm 0.22 in5.6 mm
07:41 PM 41.1°F5.1°C 45.0°F7.2°C 91% 2.4 mph NNW3.9 kmh NNW 2.4 mph3.9 kmh 29.81 in1009.5 mb 0.00 in0.0 mm 0.00 in0.0 mm 0.22 in5.6 mm
07:44 PM 41.2°F5.1°C 45.1°F7.3°C 91% 4.4 mph NNW7.1 kmh NNW 4.4 mph7.1 kmh 29.81 in1009.5 mb 0.00 in0.0 mm 0.00 in0.0 mm 0.22 in5.6 mm
07:47 PM 41.1°F5.1°C 45.1°F7.3°C 91% 1.2 mph NNW1.9 kmh NNW 1.2 mph1.9 kmh 29.81 in1009.5 mb 0.00 in0.0 mm 0.00 in0.0 mm 0.22 in5.6 mm
07:50 PM 41.2°F5.1°C 45.2°F7.3°C 91% 4.4 mph WNW7.1 kmh WNW 4.5 mph7.2 kmh 29.81 in1009.5 mb 0.00 in0.0 mm 0.00 in0.0 mm 0.22 in5.6 mm
07:53 PM 41.3°F5.2°C 45.1°F7.3°C 91% 5.2 mph W8.4 kmh W 5.3 mph8.5 kmh 29.81 in1009.5 mb 0.00 in0.0 mm 0.00 in0.0 mm 0.22 in5.6 mm
07:56 PM 41.3°F5.2°C 45.5°F7.5°C 92% 6.4 mph NW10.3 kmh NW 6.5 mph10.5 kmh 29.81 in1009.5 mb 0.00 in0.0 mm 0.00 in0.0 mm 0.22 in5.6 mm
07:59 PM 41.3°F5.2°C 45.1°F7.3°C 91% 4.0 mph WNW6.4 kmh WNW 4.1 mph6.6 kmh 29.81 in1009.5 mb 0.00 in0.0 mm 0.00 in0.0 mm 0.22 in5.6 mm
08:02 PM 41.3°F5.2°C 45.1°F7.3°C 91% 6.0 mph NW9.7 kmh NW 6.1 mph9.8 kmh 29.81 in1009.5 mb 0.00 in0.0 mm 0.00 in0.0 mm 0.22 in5.6 mm
08:05 PM 41.3°F5.2°C 45.0°F7.2°C 91% 4.0 mph NNW6.4 kmh NNW 4.0 mph6.4 kmh 29.81 in1009.5 mb 0.00 in0.0 mm 0.00 in0.0 mm 0.22 in5.6 mm
08:08 PM 41.5°F5.3°C 45.3°F7.4°C 92% 7.2 mph NW11.6 kmh NW 7.3 mph11.7 kmh 29.81 in1009.5 mb 0.00 in0.0 mm 0.00 in0.0 mm 0.22 in5.6 mm
08:11 PM 41.5°F5.3°C 45.1°F7.3°C 91% 4.4 mph NW7.1 kmh NW 4.5 mph7.2 kmh 29.81 in1009.5 mb 0.00 in0.0 mm 0.00 in0.0 mm 0.22 in5.6 mm
08:14 PM 41.5°F5.3°C 45.3°F7.4°C 91% 4.0 mph WNW6.4 kmh WNW 4.0 mph6.4 kmh 29.81 in1009.5 mb 0.00 in0.0 mm 0.00 in0.0 mm 0.22 in5.6 mm
08:17 PM 41.2°F5.1°C 45.2°F7.3°C 91% 2.8 mph WNW4.5 kmh WNW 2.8 mph4.5 kmh 29.81 in1009.5 mb 0.00 in0.0 mm 0.00 in0.0 mm 0.22 in5.6 mm
08:20 PM 41.2°F5.1°C 45.2°F7.3°C 90% 6.0 mph WNW9.7 kmh WNW 6.1 mph9.8 kmh 29.81 in1009.5 mb 0.00 in0.0 mm 0.00 in0.0 mm 0.22 in5.6 mm
08:23 PM 41.3°F5.2°C 44.9°F7.2°C 91% 6.8 mph NW10.9 kmh NW 6.9 mph11.1 kmh 29.81 in1009.5 mb 0.00 in0.0 mm 0.00 in0.0 mm 0.22 in5.6 mm
08:26 PM 41.3°F5.2°C 45.2°F7.3°C 91% 2.0 mph NNW3.2 kmh NNW 2.0 mph3.2 kmh 29.81 in1009.5 mb 0.00 in0.0 mm 0.00 in0.0 mm 0.22 in5.6 mm
08:29 PM 41.5°F5.3°C 45.1°F7.3°C 91% 2.4 mph NW3.9 kmh NW 2.4 mph3.9 kmh 29.81 in1009.5 mb 0.00 in0.0 mm 0.00 in0.0 mm 0.22 in5.6 mm
08:32 PM 41.3°F5.2°C 45.0°F7.2°C 90% 2.0 mph NW3.2 kmh NW 2.0 mph3.2 kmh 29.81 in1009.5 mb 0.00 in0.0 mm 0.00 in0.0 mm 0.22 in5.6 mm
08:35 PM 41.3°F5.2°C 45.1°F7.3°C 90% 1.6 mph NNW2.6 kmh NNW 1.6 mph2.6 kmh 29.81 in1009.5 mb 0.00 in0.0 mm 0.00 in0.0 mm 0.22 in5.6 mm
08:38 PM 41.3°F5.2°C 45.0°F7.2°C 91% 1.2 mph NW1.9 kmh NW 1.2 mph1.9 kmh 29.81 in1009.5 mb 0.00 in0.0 mm 0.00 in0.0 mm 0.22 in5.6 mm
08:41 PM 41.3°F5.2°C 45.0°F7.2°C 90% 4.8 mph W7.7 kmh W 4.8 mph7.7 kmh 29.81 in1009.5 mb 0.00 in0.0 mm 0.00 in0.0 mm 0.22 in5.6 mm
08:44 PM 41.5°F5.3°C 44.8°F7.1°C 89% 0.8 mph NNW1.3 kmh NNW 0.8 mph1.3 kmh 29.81 in1009.5 mb 0.00 in0.0 mm 0.00 in0.0 mm 0.22 in5.6 mm
08:47 PM 41.5°F5.3°C 45.2°F7.3°C 90% 5.2 mph NW8.4 kmh NW 5.3 mph8.5 kmh 29.81 in1009.5 mb 0.00 in0.0 mm 0.00 in0.0 mm 0.22 in5.6 mm
08:50 PM 41.6°F5.3°C 45.3°F7.4°C 90% 3.2 mph NW5.1 kmh NW 3.2 mph5.1 kmh 29.81 in1009.5 mb 0.00 in0.0 mm 0.00 in0.0 mm 0.22 in5.6 mm
08:53 PM 41.3°F5.2°C 44.9°F7.2°C 90% 6.4 mph NNW10.3 kmh NNW 6.4 mph10.3 kmh 29.82 in1009.8 mb 0.00 in0.0 mm 0.00 in0.0 mm 0.24 in6.1 mm
08:56 PM 40.7°F4.8°C 44.7°F7.1°C 90% 3.6 mph NNE5.8 kmh NNE 3.7 mph6.0 kmh 29.82 in1009.8 mb 0.00 in0.0 mm 0.00 in0.0 mm 0.24 in6.1 mm
08:59 PM 39.8°F4.3°C 42.6°F5.9°C 85% 15.4 mph NNW24.8 kmh NNW 15.5 mph24.9 kmh 29.82 in1009.8 mb 0.00 in0.0 mm 0.00 in0.0 mm 0.24 in6.1 mm
09:02 PM 39.2°F4.0°C 42.5°F5.8°C 85% 8.0 mph 12.9 kmh 8.0 mph12.9 kmh 29.81 in1009.5 mb 0.00 in0.0 mm 0.00 in0.0 mm 0.24 in6.1 mm
09:05 PM 39.2°F4.0°C 42.8°F6.0°C 85% 4.0 mph NW6.4 kmh NW 4.0 mph6.4 kmh 29.81 in1009.5 mb 0.00 in0.0 mm 0.00 in0.0 mm 0.24 in6.1 mm
09:08 PM 39.1°F3.9°C 43.1°F6.2°C 86% 3.2 mph NNW5.1 kmh NNW 3.2 mph5.1 kmh 29.81 in1009.5 mb 0.00 in0.0 mm 0.00 in0.0 mm 0.24 in6.1 mm
09:14 PM 38.5°F3.6°C 42.8°F6.0°C 85% 4.0 mph NNW6.4 kmh NNW 4.1 mph6.6 kmh 29.82 in1009.8 mb 0.00 in0.0 mm 0.00 in0.0 mm 0.24 in6.1 mm
09:17 PM 38.4°F3.6°C 42.9°F6.1°C 85% 1.6 mph NNW2.6 kmh NNW 1.6 mph2.6 kmh 29.83 in1010.2 mb 0.00 in0.0 mm 0.00 in0.0 mm 0.24 in6.1 mm
09:20 PM 38.4°F3.6°C 42.7°F5.9°C 85% 4.0 mph NW6.4 kmh NW 4.1 mph6.6 kmh 29.82 in1009.8 mb 0.00 in0.0 mm 0.00 in0.0 mm 0.24 in6.1 mm
09:23 PM 38.6°F3.7°C 42.6°F5.9°C 84% 3.2 mph NW5.1 kmh NW 3.3 mph5.3 kmh 29.82 in1009.8 mb 0.00 in0.0 mm 0.00 in0.0 mm 0.24 in6.1 mm
09:26 PM 38.9°F3.8°C 43.1°F6.2°C 86% 2.0 mph 3.2 kmh 2.0 mph3.2 kmh 29.82 in1009.8 mb 0.00 in0.0 mm 0.00 in0.0 mm 0.24 in6.1 mm
09:29 PM 38.4°F3.6°C 42.8°F6.0°C 85% 2.8 mph NW4.5 kmh NW 2.9 mph4.7 kmh 29.82 in1009.8 mb 0.00 in0.0 mm 0.00 in0.0 mm 0.24 in6.1 mm
09:32 PM 38.4°F3.6°C 42.8°F6.0°C 86% 0.4 mph WNW0.6 kmh WNW 0.4 mph0.6 kmh 29.83 in1010.2 mb 0.00 in0.0 mm 0.00 in0.0 mm 0.24 in6.1 mm
09:35 PM 38.4°F3.6°C 42.6°F5.9°C 85% Calm Calm -- 29.82 in1009.8 mb 0.00 in0.0 mm 0.00 in0.0 mm 0.24 in6.1 mm
09:38 PM 38.5°F3.6°C 42.8°F6.0°C 86% 0.8 mph NW1.3 kmh NW 0.8 mph1.3 kmh 29.83 in1010.2 mb 0.00 in0.0 mm 0.00 in0.0 mm 0.24 in6.1 mm
09:47 PM 38.8°F3.8°C 42.7°F5.9°C 86% Calm Calm -- 29.83 in1010.2 mb 0.00 in0.0 mm 0.00 in0.0 mm 0.24 in6.1 mm
09:50 PM 38.8°F3.8°C 42.6°F5.9°C 86% 1.2 mph 1.9 kmh 1.2 mph1.9 kmh 29.83 in1010.2 mb 0.00 in0.0 mm 0.00 in0.0 mm 0.24 in6.1 mm
09:53 PM 38.9°F3.8°C 42.9°F6.1°C 86% 2.4 mph NNW3.9 kmh NNW 2.4 mph3.9 kmh 29.83 in1010.2 mb 0.00 in0.0 mm 0.00 in0.0 mm 0.24 in6.1 mm
10:02 PM 38.9°F3.8°C 42.7°F5.9°C 87% 1.2 mph W1.9 kmh W 1.2 mph1.9 kmh 29.83 in1010.2 mb 0.00 in0.0 mm 0.00 in0.0 mm 0.26 in6.6 mm
10:05 PM 38.9°F3.8°C 42.5°F5.8°C 86% 2.4 mph WSW3.9 kmh WSW 2.4 mph3.9 kmh 29.83 in1010.2 mb 0.00 in0.0 mm 0.00 in0.0 mm 0.26 in6.6 mm
10:08 PM 39.1°F3.9°C 42.8°F6.0°C 87% 3.6 mph 5.8 kmh 3.6 mph5.8 kmh 29.83 in1010.2 mb 0.00 in0.0 mm 0.00 in0.0 mm 0.26 in6.6 mm
10:17 PM 39.2°F4.0°C 42.7°F5.9°C 87% 7.6 mph NW12.2 kmh NW 7.6 mph12.2 kmh 29.84 in1010.5 mb 0.00 in0.0 mm 0.00 in0.0 mm 0.26 in6.6 mm
10:20 PM 39.3°F4.1°C 42.2°F5.7°C 85% 5.9 mph 9.5 kmh 6.0 mph9.7 kmh 29.84 in1010.5 mb 0.00 in0.0 mm 0.00 in0.0 mm 0.26 in6.6 mm
10:23 PM 38.6°F3.7°C 42.0°F5.6°C 86% 5.6 mph NNW9.0 kmh NNW 5.6 mph9.0 kmh 29.84 in1010.5 mb 0.00 in0.0 mm 0.00 in0.0 mm 0.26 in6.6 mm
10:24 PM 38.8°F3.8°C 41.7°F5.4°C 85% 6.0 mph 9.7 kmh 6.0 mph9.7 kmh 29.84 in1010.5 mb 0.00 in0.0 mm 0.00 in0.0 mm 0.26 in6.6 mm
10:27 PM 38.4°F3.6°C 42.1°F5.6°C 86% 7.6 mph NNW12.2 kmh NNW 7.6 mph12.2 kmh 29.84 in1010.5 mb 0.00 in0.0 mm 0.00 in0.0 mm 0.26 in6.6 mm
10:30 PM 38.1°F3.4°C 41.9°F5.5°C 85% 5.3 mph NW8.5 kmh NW 5.3 mph8.5 kmh 29.84 in1010.5 mb 0.00 in0.0 mm 0.00 in0.0 mm 0.26 in6.6 mm
10:31 PM 38.1°F3.4°C 41.8°F5.4°C 85% 3.2 mph NW5.1 kmh NW 3.2 mph5.1 kmh 29.84 in1010.5 mb 0.00 in0.0 mm 0.00 in0.0 mm 0.26 in6.6 mm
10:33 PM 38.1°F3.4°C 41.8°F5.4°C 86% 1.2 mph 1.9 kmh 1.2 mph1.9 kmh 29.84 in1010.5 mb 0.00 in0.0 mm 0.00 in0.0 mm 0.26 in6.6 mm
10:34 PM 38.0°F3.3°C 41.6°F5.3°C 85% 1.2 mph 1.9 kmh 1.4 mph2.3 kmh 29.84 in1010.5 mb 0.00 in0.0 mm 0.00 in0.0 mm 0.26 in6.6 mm
10:37 PM 37.9°F3.3°C 41.4°F5.2°C 85% 6.4 mph NNW10.3 kmh NNW 6.4 mph10.3 kmh 29.84 in1010.5 mb 0.00 in0.0 mm 0.00 in0.0 mm 0.26 in6.6 mm
10:40 PM 37.7°F3.2°C 41.5°F5.3°C 85% 5.3 mph 8.5 kmh 5.3 mph8.5 kmh 29.84 in1010.5 mb 0.00 in0.0 mm 0.00 in0.0 mm 0.26 in6.6 mm
10:43 PM 37.6°F3.1°C 41.3°F5.2°C 85% 4.0 mph NW6.4 kmh NW 4.1 mph6.6 kmh 29.84 in1010.5 mb 0.00 in0.0 mm 0.00 in0.0 mm 0.26 in6.6 mm
10:46 PM 37.3°F2.9°C 41.3°F5.2°C 85% 1.6 mph WNW2.6 kmh WNW 1.6 mph2.6 kmh 29.84 in1010.5 mb 0.00 in0.0 mm 0.00 in0.0 mm 0.26 in6.6 mm
10:49 PM 37.1°F2.8°C 41.4°F5.2°C 85% 0.8 mph NNW1.3 kmh NNW 0.8 mph1.3 kmh 29.84 in1010.5 mb 0.00 in0.0 mm 0.00 in0.0 mm 0.26 in6.6 mm
10:52 PM 37.0°F2.8°C 41.1°F5.1°C 85% 2.4 mph NNW3.9 kmh NNW 2.4 mph3.9 kmh 29.84 in1010.5 mb 0.00 in0.0 mm 0.00 in0.0 mm 0.26 in6.6 mm
10:58 PM 37.1°F2.8°C 41.1°F5.1°C 85% 3.5 mph NNW5.6 kmh NNW 3.5 mph5.6 kmh 29.84 in1010.5 mb 0.00 in0.0 mm 0.00 in0.0 mm 0.26 in6.6 mm
11:01 PM 37.1°F2.8°C 41.2°F5.1°C 85% 0.4 mph NNW0.6 kmh NNW 0.4 mph0.6 kmh 29.84 in1010.5 mb 0.00 in0.0 mm 0.00 in0.0 mm 0.26 in6.6 mm
11:04 PM 37.3°F2.9°C 41.1°F5.1°C 85% 1.2 mph 1.9 kmh 1.2 mph1.9 kmh 29.84 in1010.5 mb 0.00 in0.0 mm 0.00 in0.0 mm 0.26 in6.6 mm
11:07 PM 37.3°F2.9°C 41.0°F5.0°C 85% 2.3 mph 3.7 kmh 2.3 mph3.7 kmh 29.84 in1010.5 mb 0.00 in0.0 mm 0.00 in0.0 mm 0.26 in6.6 mm
11:10 PM 37.1°F2.8°C 41.0°F5.0°C 85% 1.6 mph NNW2.6 kmh NNW 1.6 mph2.6 kmh 29.84 in1010.5 mb 0.00 in0.0 mm 0.00 in0.0 mm 0.26 in6.6 mm
11:13 PM 37.2°F2.9°C 40.8°F4.9°C 85% 0.8 mph NNW1.3 kmh NNW 0.8 mph1.3 kmh 29.84 in1010.5 mb 0.00 in0.0 mm 0.00 in0.0 mm 0.26 in6.6 mm
11:16 PM 37.0°F2.8°C 41.1°F5.1°C 86% Calm Calm -- 29.84 in1010.5 mb 0.00 in0.0 mm 0.00 in0.0 mm 0.26 in6.6 mm
11:19 PM 36.6°F2.6°C 40.8°F4.9°C 85% Calm Calm -- 29.84 in1010.5 mb 0.00 in0.0 mm 0.00 in0.0 mm 0.26 in6.6 mm
11:22 PM 36.1°F2.3°C 40.6°F4.8°C 84% Calm Calm -- 29.84 in1010.5 mb 0.00 in0.0 mm 0.00 in0.0 mm 0.26 in6.6 mm
11:25 PM 35.6°F2.0°C 40.4°F4.7°C 84% Calm Calm -- 29.84 in1010.5 mb 0.00 in0.0 mm 0.00 in0.0 mm 0.26 in6.6 mm
11:28 PM 35.4°F1.9°C 40.5°F4.7°C 84% Calm Calm -- 29.84 in1010.5 mb 0.00 in0.0 mm 0.00 in0.0 mm 0.26 in6.6 mm
11:31 PM 35.4°F1.9°C 40.3°F4.6°C 84% Calm Calm -- 29.85 in1010.8 mb 0.00 in0.0 mm 0.00 in0.0 mm 0.26 in6.6 mm
11:34 PM 34.9°F1.6°C 40.1°F4.5°C 84% Calm Calm -- 29.84 in1010.5 mb 0.00 in0.0 mm 0.00 in0.0 mm 0.26 in6.6 mm
11:37 PM 35.2°F1.8°C 40.3°F4.6°C 84% Calm Calm -- 29.84 in1010.5 mb 0.00 in0.0 mm 0.00 in0.0 mm 0.26 in6.6 mm
11:40 PM 35.3°F1.8°C 40.1°F4.5°C 84% Calm Calm -- 29.84 in1010.5 mb 0.00 in0.0 mm 0.00 in0.0 mm 0.26 in6.6 mm
11:43 PM 35.4°F1.9°C 40.2°F4.6°C 85% Calm Calm -- 29.84 in1010.5 mb 0.00 in0.0 mm 0.00 in0.0 mm 0.26 in6.6 mm
11:46 PM 35.2°F1.8°C 40.1°F4.5°C 85% Calm Calm -- 29.85 in1010.8 mb 0.00 in0.0 mm 0.00 in0.0 mm 0.26 in6.6 mm
11:49 PM 35.3°F1.8°C 40.1°F4.5°C 85% Calm Calm -- 29.85 in1010.8 mb 0.00 in0.0 mm 0.00 in0.0 mm 0.26 in6.6 mm
11:52 PM 35.2°F1.8°C 40.1°F4.5°C 85% Calm Calm -- 29.85 in1010.8 mb 0.00 in0.0 mm 0.00 in0.0 mm 0.26 in6.6 mm
11:55 PM 35.4°F1.9°C 40.2°F4.6°C 85% Calm Calm -- 29.86 in1011.2 mb 0.00 in0.0 mm 0.00 in0.0 mm 0.26 in6.6 mm
11:58 PM 35.6°F2.0°C 40.4°F4.7°C 86% Calm Calm -- 29.85 in1010.8 mb 0.00 in0.0 mm 0.00 in0.0 mm 0.26 in6.6 mm